<?xml version="1.0" encoding="UTF-8"?>
<gpx xmlns="http://www.topografix.com/GPX/1/1" xmlns:xsi="http://www.w3.org/2001/XMLSchema-instance" version="1.1" xsi:schemaLocation="http://www.topografix.com/GPX/1/1 http://www.topografix.com/GPX/1/1/gpx.xsd">
  <metadata>
    <name>Challenge Davos</name>
  </metadata>
  <trk>
    <name>Challenge Davos</name>
    <trkseg>
      <trkpt lat="46.816604" lon="9.845585">
        <ele>1561.793128</ele>
        <time>2023-08-26T11:43:00.000Z</time>
      </trkpt>
      <trkpt lat="46.816607" lon="9.845583">
        <ele>1561.793116</ele>
        <time>2023-08-26T11:43:00.000Z</time>
      </trkpt>
      <trkpt lat="46.816454" lon="9.845396">
        <ele>1561.793115</ele>
        <time>2023-08-26T11:43:02.000Z</time>
      </trkpt>
      <trkpt lat="46.816287" lon="9.845333">
        <ele>1561.793122</ele>
        <time>2023-08-26T11:43:04.000Z</time>
      </trkpt>
      <trkpt lat="46.81624" lon="9.845333">
        <ele>1561.793122</ele>
        <time>2023-08-26T11:43:05.000Z</time>
      </trkpt>
      <trkpt lat="46.81619" lon="9.845338">
        <ele>1561.793112</ele>
        <time>2023-08-26T11:43:06.000Z</time>
      </trkpt>
      <trkpt lat="46.815755" lon="9.845449">
        <ele>1561.782331</ele>
        <time>2023-08-26T11:43:11.000Z</time>
      </trkpt>
      <trkpt lat="46.815381" lon="9.845766">
        <ele>1561.582628</ele>
        <time>2023-08-26T11:43:16.000Z</time>
      </trkpt>
      <trkpt lat="46.814709" lon="9.846481">
        <ele>1561.189226</ele>
        <time>2023-08-26T11:43:25.000Z</time>
      </trkpt>
      <trkpt lat="46.814592" lon="9.846521">
        <ele>1561.133565</ele>
        <time>2023-08-26T11:43:26.000Z</time>
      </trkpt>
      <trkpt lat="46.814411" lon="9.846581">
        <ele>1561.050534</ele>
        <time>2023-08-26T11:43:28.000Z</time>
      </trkpt>
      <trkpt lat="46.814349" lon="9.846577">
        <ele>1561.022274</ele>
        <time>2023-08-26T11:43:29.000Z</time>
      </trkpt>
      <trkpt lat="46.814015" lon="9.846436">
        <ele>1560.869315</ele>
        <time>2023-08-26T11:43:33.000Z</time>
      </trkpt>
      <trkpt lat="46.813546" lon="9.845787">
        <ele>1560.605994</ele>
        <time>2023-08-26T11:43:40.000Z</time>
      </trkpt>
      <trkpt lat="46.813505" lon="9.845594">
        <ele>1560.55071</ele>
        <time>2023-08-26T11:43:42.000Z</time>
      </trkpt>
      <trkpt lat="46.813541" lon="9.845565">
        <ele>1560.537406</ele>
        <time>2023-08-26T11:43:42.000Z</time>
      </trkpt>
      <trkpt lat="46.813402" lon="9.84546">
        <ele>1560.474564</ele>
        <time>2023-08-26T11:43:44.000Z</time>
      </trkpt>
      <trkpt lat="46.81295" lon="9.845324">
        <ele>1560.292299</ele>
        <time>2023-08-26T11:43:49.000Z</time>
      </trkpt>
      <trkpt lat="46.812825" lon="9.845278">
        <ele>1560.240934</ele>
        <time>2023-08-26T11:43:50.000Z</time>
      </trkpt>
      <trkpt lat="46.812757" lon="9.845243">
        <ele>1560.2211</ele>
        <time>2023-08-26T11:43:51.000Z</time>
      </trkpt>
      <trkpt lat="46.812654" lon="9.845174">
        <ele>1560.217998</ele>
        <time>2023-08-26T11:43:52.000Z</time>
      </trkpt>
      <trkpt lat="46.812543" lon="9.845091">
        <ele>1560.214462</ele>
        <time>2023-08-26T11:43:53.000Z</time>
      </trkpt>
      <trkpt lat="46.81248" lon="9.845042">
        <ele>1560.212603</ele>
        <time>2023-08-26T11:43:54.000Z</time>
      </trkpt>
      <trkpt lat="46.812361" lon="9.844915">
        <ele>1560.20861</ele>
        <time>2023-08-26T11:43:56.000Z</time>
      </trkpt>
      <trkpt lat="46.812275" lon="9.844833">
        <ele>1560.206199</ele>
        <time>2023-08-26T11:43:57.000Z</time>
      </trkpt>
      <trkpt lat="46.81186" lon="9.844321">
        <ele>1560.191763</ele>
        <time>2023-08-26T11:44:03.000Z</time>
      </trkpt>
      <trkpt lat="46.811768" lon="9.844187">
        <ele>1560.188078</ele>
        <time>2023-08-26T11:44:04.000Z</time>
      </trkpt>
      <trkpt lat="46.811739" lon="9.84416">
        <ele>1560.187184</ele>
        <time>2023-08-26T11:44:04.000Z</time>
      </trkpt>
      <trkpt lat="46.81155" lon="9.84394">
        <ele>1560.180947</ele>
        <time>2023-08-26T11:44:07.000Z</time>
      </trkpt>
      <trkpt lat="46.811182" lon="9.843466">
        <ele>1560.381503</ele>
        <time>2023-08-26T11:44:12.000Z</time>
      </trkpt>
      <trkpt lat="46.811166" lon="9.843533">
        <ele>1560.42054</ele>
        <time>2023-08-26T11:44:13.000Z</time>
      </trkpt>
      <trkpt lat="46.811173" lon="9.843559">
        <ele>1560.438933</ele>
        <time>2023-08-26T11:44:13.000Z</time>
      </trkpt>
      <trkpt lat="46.811177" lon="9.843655">
        <ele>1560.503358</ele>
        <time>2023-08-26T11:44:14.000Z</time>
      </trkpt>
      <trkpt lat="46.811298" lon="9.84415">
        <ele>1560.822209</ele>
        <time>2023-08-26T11:44:18.000Z</time>
      </trkpt>
      <trkpt lat="46.81142" lon="9.844566">
        <ele>1561.092464</ele>
        <time>2023-08-26T11:44:21.000Z</time>
      </trkpt>
      <trkpt lat="46.811631" lon="9.84556">
        <ele>1561.718136</ele>
        <time>2023-08-26T11:44:29.000Z</time>
      </trkpt>
      <trkpt lat="46.811882" lon="9.846746">
        <ele>1563.448046</ele>
        <time>2023-08-26T11:44:38.000Z</time>
      </trkpt>
      <trkpt lat="46.811875" lon="9.846851">
        <ele>1563.581691</ele>
        <time>2023-08-26T11:44:39.000Z</time>
      </trkpt>
      <trkpt lat="46.811886" lon="9.846911">
        <ele>1563.692271</ele>
        <time>2023-08-26T11:44:39.000Z</time>
      </trkpt>
      <trkpt lat="46.811841" lon="9.847982">
        <ele>1565.21046</ele>
        <time>2023-08-26T11:44:47.000Z</time>
      </trkpt>
      <trkpt lat="46.811812" lon="9.848251">
        <ele>1565.631849</ele>
        <time>2023-08-26T11:44:49.000Z</time>
      </trkpt>
      <trkpt lat="46.811764" lon="9.848568">
        <ele>1566.257731</ele>
        <time>2023-08-26T11:44:51.000Z</time>
      </trkpt>
      <trkpt lat="46.811338" lon="9.850639">
        <ele>1570.387361</ele>
        <time>2023-08-26T11:45:07.000Z</time>
      </trkpt>
      <trkpt lat="46.811285" lon="9.850895">
        <ele>1571.042089</ele>
        <time>2023-08-26T11:45:09.000Z</time>
      </trkpt>
      <trkpt lat="46.811148" lon="9.851615">
        <ele>1573.058201</ele>
        <time>2023-08-26T11:45:15.000Z</time>
      </trkpt>
      <trkpt lat="46.811105" lon="9.851861">
        <ele>1573.729651</ele>
        <time>2023-08-26T11:45:17.000Z</time>
      </trkpt>
      <trkpt lat="46.811058" lon="9.852281">
        <ele>1574.891113</ele>
        <time>2023-08-26T11:45:20.000Z</time>
      </trkpt>
      <trkpt lat="46.811049" lon="9.85283">
        <ele>1576.376995</ele>
        <time>2023-08-26T11:45:24.000Z</time>
      </trkpt>
      <trkpt lat="46.811027" lon="9.853323">
        <ele>1577.802169</ele>
        <time>2023-08-26T11:45:28.000Z</time>
      </trkpt>
      <trkpt lat="46.811025" lon="9.853467">
        <ele>1578.376488</ele>
        <time>2023-08-26T11:45:29.000Z</time>
      </trkpt>
      <trkpt lat="46.811035" lon="9.853528">
        <ele>1578.605491</ele>
        <time>2023-08-26T11:45:29.000Z</time>
      </trkpt>
      <trkpt lat="46.811019" lon="9.854564">
        <ele>1582.7823</ele>
        <time>2023-08-26T11:45:37.000Z</time>
      </trkpt>
      <trkpt lat="46.811011" lon="9.856311">
        <ele>1590.116798</ele>
        <time>2023-08-26T11:45:50.000Z</time>
      </trkpt>
      <trkpt lat="46.810962" lon="9.856797">
        <ele>1592.61979</ele>
        <time>2023-08-26T11:45:54.000Z</time>
      </trkpt>
      <trkpt lat="46.810606" lon="9.858401">
        <ele>1601.0857</ele>
        <time>2023-08-26T11:46:07.000Z</time>
      </trkpt>
      <trkpt lat="46.810062" lon="9.859597">
        <ele>1608.943209</ele>
        <time>2023-08-26T11:46:18.000Z</time>
      </trkpt>
      <trkpt lat="46.809996" lon="9.860075">
        <ele>1611.648502</ele>
        <time>2023-08-26T11:46:22.000Z</time>
      </trkpt>
      <trkpt lat="46.809939" lon="9.861243">
        <ele>1617.74438</ele>
        <time>2023-08-26T11:46:31.000Z</time>
      </trkpt>
      <trkpt lat="46.809542" lon="9.862601">
        <ele>1624.612046</ele>
        <time>2023-08-26T11:46:42.000Z</time>
      </trkpt>
      <trkpt lat="46.809455" lon="9.862821">
        <ele>1625.794081</ele>
        <time>2023-08-26T11:46:44.000Z</time>
      </trkpt>
      <trkpt lat="46.809162" lon="9.863326">
        <ele>1628.594396</ele>
        <time>2023-08-26T11:46:49.000Z</time>
      </trkpt>
      <trkpt lat="46.808999" lon="9.86366">
        <ele>1629.785846</ele>
        <time>2023-08-26T11:46:52.000Z</time>
      </trkpt>
      <trkpt lat="46.808664" lon="9.864495">
        <ele>1632.502813</ele>
        <time>2023-08-26T11:46:59.000Z</time>
      </trkpt>
      <trkpt lat="46.808591" lon="9.864663">
        <ele>1633.058978</ele>
        <time>2023-08-26T11:47:01.000Z</time>
      </trkpt>
      <trkpt lat="46.808385" lon="9.865484">
        <ele>1635.571776</ele>
        <time>2023-08-26T11:47:08.000Z</time>
      </trkpt>
      <trkpt lat="46.80825" lon="9.866645">
        <ele>1639.088866</ele>
        <time>2023-08-26T11:47:17.000Z</time>
      </trkpt>
      <trkpt lat="46.80837" lon="9.868674">
        <ele>1645.434177</ele>
        <time>2023-08-26T11:47:33.000Z</time>
      </trkpt>
      <trkpt lat="46.807889" lon="9.871727">
        <ele>1656.548839</ele>
        <time>2023-08-26T11:47:57.000Z</time>
      </trkpt>
      <trkpt lat="46.807892" lon="9.872094">
        <ele>1657.947856</ele>
        <time>2023-08-26T11:48:00.000Z</time>
      </trkpt>
      <trkpt lat="46.807988" lon="9.872637">
        <ele>1660.150811</ele>
        <time>2023-08-26T11:48:04.000Z</time>
      </trkpt>
      <trkpt lat="46.807919" lon="9.873477">
        <ele>1663.476265</ele>
        <time>2023-08-26T11:48:10.000Z</time>
      </trkpt>
      <trkpt lat="46.807889" lon="9.873676">
        <ele>1664.368088</ele>
        <time>2023-08-26T11:48:12.000Z</time>
      </trkpt>
      <trkpt lat="46.807883" lon="9.87384">
        <ele>1665.137072</ele>
        <time>2023-08-26T11:48:13.000Z</time>
      </trkpt>
      <trkpt lat="46.807874" lon="9.873905">
        <ele>1665.411292</ele>
        <time>2023-08-26T11:48:14.000Z</time>
      </trkpt>
      <trkpt lat="46.80785" lon="9.874105">
        <ele>1666.281463</ele>
        <time>2023-08-26T11:48:16.000Z</time>
      </trkpt>
      <trkpt lat="46.807882" lon="9.87498">
        <ele>1670.035715</ele>
        <time>2023-08-26T11:48:23.000Z</time>
      </trkpt>
      <trkpt lat="46.807518" lon="9.876612">
        <ele>1676.945545</ele>
        <time>2023-08-26T11:48:36.000Z</time>
      </trkpt>
      <trkpt lat="46.807436" lon="9.877196">
        <ele>1679.113632</ele>
        <time>2023-08-26T11:48:41.000Z</time>
      </trkpt>
      <trkpt lat="46.807544" lon="9.87866">
        <ele>1684.6629</ele>
        <time>2023-08-26T11:48:52.000Z</time>
      </trkpt>
      <trkpt lat="46.807313" lon="9.88048">
        <ele>1692.166737</ele>
        <time>2023-08-26T11:49:06.000Z</time>
      </trkpt>
      <trkpt lat="46.807221" lon="9.880811">
        <ele>1693.576737</ele>
        <time>2023-08-26T11:49:09.000Z</time>
      </trkpt>
      <trkpt lat="46.807185" lon="9.880972">
        <ele>1694.396846</ele>
        <time>2023-08-26T11:49:10.000Z</time>
      </trkpt>
      <trkpt lat="46.807065" lon="9.88161">
        <ele>1698.514859</ele>
        <time>2023-08-26T11:49:15.000Z</time>
      </trkpt>
      <trkpt lat="46.807015" lon="9.882836">
        <ele>1706.086324</ele>
        <time>2023-08-26T11:49:24.000Z</time>
      </trkpt>
      <trkpt lat="46.806904" lon="9.883266">
        <ele>1708.948981</ele>
        <time>2023-08-26T11:49:28.000Z</time>
      </trkpt>
      <trkpt lat="46.806862" lon="9.883767">
        <ele>1712.166802</ele>
        <time>2023-08-26T11:49:32.000Z</time>
      </trkpt>
      <trkpt lat="46.806685" lon="9.884756">
        <ele>1718.365281</ele>
        <time>2023-08-26T11:49:40.000Z</time>
      </trkpt>
      <trkpt lat="46.806759" lon="9.885771">
        <ele>1724.582276</ele>
        <time>2023-08-26T11:49:48.000Z</time>
      </trkpt>
      <trkpt lat="46.806721" lon="9.886072">
        <ele>1726.451567</ele>
        <time>2023-08-26T11:49:50.000Z</time>
      </trkpt>
      <trkpt lat="46.806504" lon="9.887127">
        <ele>1732.472702</ele>
        <time>2023-08-26T11:49:58.000Z</time>
      </trkpt>
      <trkpt lat="46.806321" lon="9.888378">
        <ele>1739.52777</ele>
        <time>2023-08-26T11:50:08.000Z</time>
      </trkpt>
      <trkpt lat="46.805984" lon="9.889145">
        <ele>1745.145227</ele>
        <time>2023-08-26T11:50:15.000Z</time>
      </trkpt>
      <trkpt lat="46.805856" lon="9.889943">
        <ele>1750.709941</ele>
        <time>2023-08-26T11:50:21.000Z</time>
      </trkpt>
      <trkpt lat="46.805794" lon="9.890301">
        <ele>1753.179203</ele>
        <time>2023-08-26T11:50:24.000Z</time>
      </trkpt>
      <trkpt lat="46.805714" lon="9.890527">
        <ele>1755.006157</ele>
        <time>2023-08-26T11:50:26.000Z</time>
      </trkpt>
      <trkpt lat="46.805655" lon="9.890682">
        <ele>1756.213817</ele>
        <time>2023-08-26T11:50:27.000Z</time>
      </trkpt>
      <trkpt lat="46.805463" lon="9.890948">
        <ele>1758.72262</ele>
        <time>2023-08-26T11:50:30.000Z</time>
      </trkpt>
      <trkpt lat="46.804587" lon="9.891918">
        <ele>1768.785841</ele>
        <time>2023-08-26T11:50:42.000Z</time>
      </trkpt>
      <trkpt lat="46.803827" lon="9.892959">
        <ele>1777.130338</ele>
        <time>2023-08-26T11:50:54.000Z</time>
      </trkpt>
      <trkpt lat="46.803775" lon="9.893007">
        <ele>1777.493998</ele>
        <time>2023-08-26T11:50:55.000Z</time>
      </trkpt>
      <trkpt lat="46.803652" lon="9.893171">
        <ele>1778.441144</ele>
        <time>2023-08-26T11:50:57.000Z</time>
      </trkpt>
      <trkpt lat="46.803466" lon="9.893297">
        <ele>1779.674949</ele>
        <time>2023-08-26T11:50:59.000Z</time>
      </trkpt>
      <trkpt lat="46.803089" lon="9.893482">
        <ele>1782.026166</ele>
        <time>2023-08-26T11:51:03.000Z</time>
      </trkpt>
      <trkpt lat="46.802827" lon="9.893712">
        <ele>1783.844108</ele>
        <time>2023-08-26T11:51:06.000Z</time>
      </trkpt>
      <trkpt lat="46.802365" lon="9.894735">
        <ele>1788.875408</ele>
        <time>2023-08-26T11:51:15.000Z</time>
      </trkpt>
      <trkpt lat="46.802207" lon="9.895254">
        <ele>1791.305255</ele>
        <time>2023-08-26T11:51:19.000Z</time>
      </trkpt>
      <trkpt lat="46.802203" lon="9.895307">
        <ele>1791.512726</ele>
        <time>2023-08-26T11:51:19.000Z</time>
      </trkpt>
      <trkpt lat="46.802175" lon="9.895677">
        <ele>1793.174497</ele>
        <time>2023-08-26T11:51:22.000Z</time>
      </trkpt>
      <trkpt lat="46.802145" lon="9.895875">
        <ele>1794.019046</ele>
        <time>2023-08-26T11:51:24.000Z</time>
      </trkpt>
      <trkpt lat="46.802139" lon="9.895943">
        <ele>1794.318403</ele>
        <time>2023-08-26T11:51:25.000Z</time>
      </trkpt>
      <trkpt lat="46.802109" lon="9.896036">
        <ele>1794.714981</ele>
        <time>2023-08-26T11:51:26.000Z</time>
      </trkpt>
      <trkpt lat="46.80195" lon="9.896483">
        <ele>1796.868673</ele>
        <time>2023-08-26T11:51:30.000Z</time>
      </trkpt>
      <trkpt lat="46.801768" lon="9.896748">
        <ele>1798.725558</ele>
        <time>2023-08-26T11:51:33.000Z</time>
      </trkpt>
      <trkpt lat="46.801057" lon="9.897803">
        <ele>1806.17471</ele>
        <time>2023-08-26T11:51:44.000Z</time>
      </trkpt>
      <trkpt lat="46.800939" lon="9.898012">
        <ele>1807.52412</ele>
        <time>2023-08-26T11:51:46.000Z</time>
      </trkpt>
      <trkpt lat="46.80092" lon="9.898065">
        <ele>1807.819564</ele>
        <time>2023-08-26T11:51:46.000Z</time>
      </trkpt>
      <trkpt lat="46.800871" lon="9.898217">
        <ele>1808.692275</ele>
        <time>2023-08-26T11:51:47.000Z</time>
      </trkpt>
      <trkpt lat="46.800827" lon="9.898324">
        <ele>1809.327829</ele>
        <time>2023-08-26T11:51:48.000Z</time>
      </trkpt>
      <trkpt lat="46.800601" lon="9.899665">
        <ele>1815.974345</ele>
        <time>2023-08-26T11:51:59.000Z</time>
      </trkpt>
      <trkpt lat="46.800437" lon="9.900064">
        <ele>1818.254445</ele>
        <time>2023-08-26T11:52:03.000Z</time>
      </trkpt>
      <trkpt lat="46.800322" lon="9.900212">
        <ele>1819.29112</ele>
        <time>2023-08-26T11:52:05.000Z</time>
      </trkpt>
      <trkpt lat="46.799905" lon="9.900602">
        <ele>1822.741637</ele>
        <time>2023-08-26T11:52:11.000Z</time>
      </trkpt>
      <trkpt lat="46.799686" lon="9.900816">
        <ele>1824.632497</ele>
        <time>2023-08-26T11:52:14.000Z</time>
      </trkpt>
      <trkpt lat="46.799396" lon="9.901221">
        <ele>1827.527416</ele>
        <time>2023-08-26T11:52:18.000Z</time>
      </trkpt>
      <trkpt lat="46.798856" lon="9.90209">
        <ele>1833.36259</ele>
        <time>2023-08-26T11:52:27.000Z</time>
      </trkpt>
      <trkpt lat="46.798454" lon="9.902736">
        <ele>1837.126853</ele>
        <time>2023-08-26T11:52:34.000Z</time>
      </trkpt>
      <trkpt lat="46.798313" lon="9.902915">
        <ele>1838.099768</ele>
        <time>2023-08-26T11:52:36.000Z</time>
      </trkpt>
      <trkpt lat="46.798272" lon="9.903">
        <ele>1838.466651</ele>
        <time>2023-08-26T11:52:37.000Z</time>
      </trkpt>
      <trkpt lat="46.797317" lon="9.903995">
        <ele>1844.648657</ele>
        <time>2023-08-26T11:52:50.000Z</time>
      </trkpt>
      <trkpt lat="46.796956" lon="9.904456">
        <ele>1846.812025</ele>
        <time>2023-08-26T11:52:55.000Z</time>
      </trkpt>
      <trkpt lat="46.796451" lon="9.904865">
        <ele>1849.32807</ele>
        <time>2023-08-26T11:53:01.000Z</time>
      </trkpt>
      <trkpt lat="46.79629" lon="9.905007">
        <ele>1850.121211</ele>
        <time>2023-08-26T11:53:03.000Z</time>
      </trkpt>
      <trkpt lat="46.796157" lon="9.905152">
        <ele>1850.849697</ele>
        <time>2023-08-26T11:53:05.000Z</time>
      </trkpt>
      <trkpt lat="46.796052" lon="9.905366">
        <ele>1851.626896</ele>
        <time>2023-08-26T11:53:07.000Z</time>
      </trkpt>
      <trkpt lat="46.795693" lon="9.906134">
        <ele>1854.937521</ele>
        <time>2023-08-26T11:53:14.000Z</time>
      </trkpt>
      <trkpt lat="46.795244" lon="9.906819">
        <ele>1858.785262</ele>
        <time>2023-08-26T11:53:21.000Z</time>
      </trkpt>
      <trkpt lat="46.794588" lon="9.907939">
        <ele>1864.760693</ele>
        <time>2023-08-26T11:53:32.000Z</time>
      </trkpt>
      <trkpt lat="46.794263" lon="9.908468">
        <ele>1867.650735</ele>
        <time>2023-08-26T11:53:37.000Z</time>
      </trkpt>
      <trkpt lat="46.794192" lon="9.908595">
        <ele>1868.309012</ele>
        <time>2023-08-26T11:53:38.000Z</time>
      </trkpt>
      <trkpt lat="46.79405" lon="9.908951">
        <ele>1869.991002</ele>
        <time>2023-08-26T11:53:41.000Z</time>
      </trkpt>
      <trkpt lat="46.793854" lon="9.909806">
        <ele>1873.712636</ele>
        <time>2023-08-26T11:53:48.000Z</time>
      </trkpt>
      <trkpt lat="46.793319" lon="9.910689">
        <ele>1878.804899</ele>
        <time>2023-08-26T11:53:57.000Z</time>
      </trkpt>
      <trkpt lat="46.792437" lon="9.913085">
        <ele>1890.974672</ele>
        <time>2023-08-26T11:54:18.000Z</time>
      </trkpt>
      <trkpt lat="46.791545" lon="9.914673">
        <ele>1900.534732</ele>
        <time>2023-08-26T11:54:34.000Z</time>
      </trkpt>
      <trkpt lat="46.791293" lon="9.914981">
        <ele>1902.738149</ele>
        <time>2023-08-26T11:54:38.000Z</time>
      </trkpt>
      <trkpt lat="46.790875" lon="9.915359">
        <ele>1906.0341</ele>
        <time>2023-08-26T11:54:43.000Z</time>
      </trkpt>
      <trkpt lat="46.79078" lon="9.915519">
        <ele>1906.931714</ele>
        <time>2023-08-26T11:54:45.000Z</time>
      </trkpt>
      <trkpt lat="46.790767" lon="9.915581">
        <ele>1907.261457</ele>
        <time>2023-08-26T11:54:45.000Z</time>
      </trkpt>
      <trkpt lat="46.790706" lon="9.915685">
        <ele>1907.906134</ele>
        <time>2023-08-26T11:54:46.000Z</time>
      </trkpt>
      <trkpt lat="46.790638" lon="9.915868">
        <ele>1908.850723</ele>
        <time>2023-08-26T11:54:48.000Z</time>
      </trkpt>
      <trkpt lat="46.790446" lon="9.916111">
        <ele>1910.556651</ele>
        <time>2023-08-26T11:54:51.000Z</time>
      </trkpt>
      <trkpt lat="46.789253" lon="9.917067">
        <ele>1919.458224</ele>
        <time>2023-08-26T11:55:06.000Z</time>
      </trkpt>
      <trkpt lat="46.788829" lon="9.917523">
        <ele>1923.035573</ele>
        <time>2023-08-26T11:55:12.000Z</time>
      </trkpt>
      <trkpt lat="46.787286" lon="9.920188">
        <ele>1939.241035</ele>
        <time>2023-08-26T11:55:39.000Z</time>
      </trkpt>
      <trkpt lat="46.787145" lon="9.920369">
        <ele>1940.322328</ele>
        <time>2023-08-26T11:55:41.000Z</time>
      </trkpt>
      <trkpt lat="46.787083" lon="9.920371">
        <ele>1940.717788</ele>
        <time>2023-08-26T11:55:42.000Z</time>
      </trkpt>
      <trkpt lat="46.787009" lon="9.920324">
        <ele>1941.16969</ele>
        <time>2023-08-26T11:55:43.000Z</time>
      </trkpt>
      <trkpt lat="46.786948" lon="9.920153">
        <ele>1941.885362</ele>
        <time>2023-08-26T11:55:44.000Z</time>
      </trkpt>
      <trkpt lat="46.786958" lon="9.920049">
        <ele>1942.321291</ele>
        <time>2023-08-26T11:55:45.000Z</time>
      </trkpt>
      <trkpt lat="46.787027" lon="9.919798">
        <ele>1943.332763</ele>
        <time>2023-08-26T11:55:47.000Z</time>
      </trkpt>
      <trkpt lat="46.787047" lon="9.919664">
        <ele>1943.846627</ele>
        <time>2023-08-26T11:55:48.000Z</time>
      </trkpt>
      <trkpt lat="46.78699" lon="9.919276">
        <ele>1945.312564</ele>
        <time>2023-08-26T11:55:51.000Z</time>
      </trkpt>
      <trkpt lat="46.786969" lon="9.919179">
        <ele>1945.626611</ele>
        <time>2023-08-26T11:55:52.000Z</time>
      </trkpt>
      <trkpt lat="46.786946" lon="9.919122">
        <ele>1945.826757</ele>
        <time>2023-08-26T11:55:53.000Z</time>
      </trkpt>
      <trkpt lat="46.786819" lon="9.919018">
        <ele>1946.408184</ele>
        <time>2023-08-26T11:55:55.000Z</time>
      </trkpt>
      <trkpt lat="46.78669" lon="9.919042">
        <ele>1946.958245</ele>
        <time>2023-08-26T11:55:56.000Z</time>
      </trkpt>
      <trkpt lat="46.785948" lon="9.920255">
        <ele>1951.671119</ele>
        <time>2023-08-26T11:56:08.000Z</time>
      </trkpt>
      <trkpt lat="46.785757" lon="9.92029">
        <ele>1952.495215</ele>
        <time>2023-08-26T11:56:10.000Z</time>
      </trkpt>
      <trkpt lat="46.785488" lon="9.920245">
        <ele>1954.293806</ele>
        <time>2023-08-26T11:56:13.000Z</time>
      </trkpt>
      <trkpt lat="46.78528" lon="9.920359">
        <ele>1955.975521</ele>
        <time>2023-08-26T11:56:15.000Z</time>
      </trkpt>
      <trkpt lat="46.784707" lon="9.921299">
        <ele>1962.558388</ele>
        <time>2023-08-26T11:56:25.000Z</time>
      </trkpt>
      <trkpt lat="46.78444" lon="9.9216">
        <ele>1965.152001</ele>
        <time>2023-08-26T11:56:29.000Z</time>
      </trkpt>
      <trkpt lat="46.784269" lon="9.921681">
        <ele>1966.497252</ele>
        <time>2023-08-26T11:56:31.000Z</time>
      </trkpt>
      <trkpt lat="46.783985" lon="9.921656">
        <ele>1970.168905</ele>
        <time>2023-08-26T11:56:34.000Z</time>
      </trkpt>
      <trkpt lat="46.783737" lon="9.921566">
        <ele>1973.184125</ele>
        <time>2023-08-26T11:56:37.000Z</time>
      </trkpt>
      <trkpt lat="46.783687" lon="9.921542">
        <ele>1974.045285</ele>
        <time>2023-08-26T11:56:38.000Z</time>
      </trkpt>
      <trkpt lat="46.783309" lon="9.921449">
        <ele>1978.632885</ele>
        <time>2023-08-26T11:56:42.000Z</time>
      </trkpt>
      <trkpt lat="46.783115" lon="9.921492">
        <ele>1981.179354</ele>
        <time>2023-08-26T11:56:44.000Z</time>
      </trkpt>
      <trkpt lat="46.782634" lon="9.921736">
        <ele>1987.482602</ele>
        <time>2023-08-26T11:56:50.000Z</time>
      </trkpt>
      <trkpt lat="46.782436" lon="9.921933">
        <ele>1990.63657</ele>
        <time>2023-08-26T11:56:53.000Z</time>
      </trkpt>
      <trkpt lat="46.781624" lon="9.923037">
        <ele>2005.387544</ele>
        <time>2023-08-26T11:57:05.000Z</time>
      </trkpt>
      <trkpt lat="46.780774" lon="9.924932">
        <ele>2022.658706</ele>
        <time>2023-08-26T11:57:22.000Z</time>
      </trkpt>
      <trkpt lat="46.780273" lon="9.927044">
        <ele>2037.210485</ele>
        <time>2023-08-26T11:57:39.000Z</time>
      </trkpt>
      <trkpt lat="46.780095" lon="9.927533">
        <ele>2040.652203</ele>
        <time>2023-08-26T11:57:43.000Z</time>
      </trkpt>
      <trkpt lat="46.779401" lon="9.929031">
        <ele>2050.99169</ele>
        <time>2023-08-26T11:57:57.000Z</time>
      </trkpt>
      <trkpt lat="46.779231" lon="9.929449">
        <ele>2053.531467</ele>
        <time>2023-08-26T11:58:01.000Z</time>
      </trkpt>
      <trkpt lat="46.779164" lon="9.92966">
        <ele>2054.707848</ele>
        <time>2023-08-26T11:58:03.000Z</time>
      </trkpt>
      <trkpt lat="46.779101" lon="9.930396">
        <ele>2058.452612</ele>
        <time>2023-08-26T11:58:09.000Z</time>
      </trkpt>
      <trkpt lat="46.779019" lon="9.930808">
        <ele>2060.602355</ele>
        <time>2023-08-26T11:58:12.000Z</time>
      </trkpt>
      <trkpt lat="46.778797" lon="9.931261">
        <ele>2062.725708</ele>
        <time>2023-08-26T11:58:16.000Z</time>
      </trkpt>
      <trkpt lat="46.778308" lon="9.931998">
        <ele>2066.705468</ele>
        <time>2023-08-26T11:58:24.000Z</time>
      </trkpt>
      <trkpt lat="46.778109" lon="9.932341">
        <ele>2068.459042</ele>
        <time>2023-08-26T11:58:27.000Z</time>
      </trkpt>
      <trkpt lat="46.777968" lon="9.932625">
        <ele>2069.765671</ele>
        <time>2023-08-26T11:58:30.000Z</time>
      </trkpt>
      <trkpt lat="46.777868" lon="9.932803">
        <ele>2070.753186</ele>
        <time>2023-08-26T11:58:32.000Z</time>
      </trkpt>
      <trkpt lat="46.777855" lon="9.932823">
        <ele>2070.933107</ele>
        <time>2023-08-26T11:58:32.000Z</time>
      </trkpt>
      <trkpt lat="46.776149" lon="9.934289">
        <ele>2089.809805</ele>
        <time>2023-08-26T11:58:54.000Z</time>
      </trkpt>
      <trkpt lat="46.775846" lon="9.93435">
        <ele>2092.8908</ele>
        <time>2023-08-26T11:58:57.000Z</time>
      </trkpt>
      <trkpt lat="46.775319" lon="9.934339">
        <ele>2097.965568</ele>
        <time>2023-08-26T11:59:03.000Z</time>
      </trkpt>
      <trkpt lat="46.774496" lon="9.934549">
        <ele>2106.096101</ele>
        <time>2023-08-26T11:59:12.000Z</time>
      </trkpt>
      <trkpt lat="46.773701" lon="9.935001">
        <ele>2114.160922</ele>
        <time>2023-08-26T11:59:22.000Z</time>
      </trkpt>
      <trkpt lat="46.772754" lon="9.936047">
        <ele>2125.385307</ele>
        <time>2023-08-26T11:59:35.000Z</time>
      </trkpt>
      <trkpt lat="46.772602" lon="9.936127">
        <ele>2126.976951</ele>
        <time>2023-08-26T11:59:37.000Z</time>
      </trkpt>
      <trkpt lat="46.772049" lon="9.936167">
        <ele>2132.151332</ele>
        <time>2023-08-26T11:59:43.000Z</time>
      </trkpt>
      <trkpt lat="46.771807" lon="9.936265">
        <ele>2134.505759</ele>
        <time>2023-08-26T11:59:46.000Z</time>
      </trkpt>
      <trkpt lat="46.771749" lon="9.936381">
        <ele>2135.498117</ele>
        <time>2023-08-26T11:59:47.000Z</time>
      </trkpt>
      <trkpt lat="46.771788" lon="9.936515">
        <ele>2136.431144</ele>
        <time>2023-08-26T11:59:48.000Z</time>
      </trkpt>
      <trkpt lat="46.772453" lon="9.936559">
        <ele>2142.254474</ele>
        <time>2023-08-26T11:59:55.000Z</time>
      </trkpt>
      <trkpt lat="46.772519" lon="9.936638">
        <ele>2142.918075</ele>
        <time>2023-08-26T11:59:56.000Z</time>
      </trkpt>
      <trkpt lat="46.772506" lon="9.936755">
        <ele>2143.632158</ele>
        <time>2023-08-26T11:59:57.000Z</time>
      </trkpt>
      <trkpt lat="46.772079" lon="9.936871">
        <ele>2147.237008</ele>
        <time>2023-08-26T12:00:02.000Z</time>
      </trkpt>
      <trkpt lat="46.771844" lon="9.937045">
        <ele>2149.425191</ele>
        <time>2023-08-26T12:00:05.000Z</time>
      </trkpt>
      <trkpt lat="46.771481" lon="9.937665">
        <ele>2153.965038</ele>
        <time>2023-08-26T12:00:11.000Z</time>
      </trkpt>
      <trkpt lat="46.771344" lon="9.937812">
        <ele>2155.416234</ele>
        <time>2023-08-26T12:00:13.000Z</time>
      </trkpt>
      <trkpt lat="46.770695" lon="9.937736">
        <ele>2160.854971</ele>
        <time>2023-08-26T12:00:20.000Z</time>
      </trkpt>
      <trkpt lat="46.770413" lon="9.937889">
        <ele>2163.371481</ele>
        <time>2023-08-26T12:00:23.000Z</time>
      </trkpt>
      <trkpt lat="46.770152" lon="9.938253">
        <ele>2166.350017</ele>
        <time>2023-08-26T12:00:27.000Z</time>
      </trkpt>
      <trkpt lat="46.770079" lon="9.938407">
        <ele>2167.452284</ele>
        <time>2023-08-26T12:00:28.000Z</time>
      </trkpt>
      <trkpt lat="46.769951" lon="9.939333">
        <ele>2173.361139</ele>
        <time>2023-08-26T12:00:35.000Z</time>
      </trkpt>
      <trkpt lat="46.76987" lon="9.939606">
        <ele>2175.22637</ele>
        <time>2023-08-26T12:00:37.000Z</time>
      </trkpt>
      <trkpt lat="46.769714" lon="9.939945">
        <ele>2177.923517</ele>
        <time>2023-08-26T12:00:40.000Z</time>
      </trkpt>
      <trkpt lat="46.768242" lon="9.941313">
        <ele>2193.643956</ele>
        <time>2023-08-26T12:00:59.000Z</time>
      </trkpt>
      <trkpt lat="46.768049" lon="9.941346">
        <ele>2195.283644</ele>
        <time>2023-08-26T12:01:01.000Z</time>
      </trkpt>
      <trkpt lat="46.767522" lon="9.941037">
        <ele>2200.111556</ele>
        <time>2023-08-26T12:01:07.000Z</time>
      </trkpt>
      <trkpt lat="46.765924" lon="9.941485">
        <ele>2209.70275</ele>
        <time>2023-08-26T12:01:25.000Z</time>
      </trkpt>
      <trkpt lat="46.765806" lon="9.94146">
        <ele>2210.357935</ele>
        <time>2023-08-26T12:01:26.000Z</time>
      </trkpt>
      <trkpt lat="46.765731" lon="9.941421">
        <ele>2210.843096</ele>
        <time>2023-08-26T12:01:27.000Z</time>
      </trkpt>
      <trkpt lat="46.76567" lon="9.94132">
        <ele>2211.362003</ele>
        <time>2023-08-26T12:01:28.000Z</time>
      </trkpt>
      <trkpt lat="46.765595" lon="9.941014">
        <ele>2212.465628</ele>
        <time>2023-08-26T12:01:30.000Z</time>
      </trkpt>
      <trkpt lat="46.765602" lon="9.940796">
        <ele>2213.191214</ele>
        <time>2023-08-26T12:01:32.000Z</time>
      </trkpt>
      <trkpt lat="46.765659" lon="9.940669">
        <ele>2213.696929</ele>
        <time>2023-08-26T12:01:33.000Z</time>
      </trkpt>
      <trkpt lat="46.765849" lon="9.940514">
        <ele>2214.707074</ele>
        <time>2023-08-26T12:01:35.000Z</time>
      </trkpt>
      <trkpt lat="46.766001" lon="9.940424">
        <ele>2215.541884</ele>
        <time>2023-08-26T12:01:37.000Z</time>
      </trkpt>
      <trkpt lat="46.766095" lon="9.94033">
        <ele>2216.095697</ele>
        <time>2023-08-26T12:01:38.000Z</time>
      </trkpt>
      <trkpt lat="46.766246" lon="9.939996">
        <ele>2217.375932</ele>
        <time>2023-08-26T12:01:41.000Z</time>
      </trkpt>
      <trkpt lat="46.766241" lon="9.939839">
        <ele>2217.897497</ele>
        <time>2023-08-26T12:01:42.000Z</time>
      </trkpt>
      <trkpt lat="46.76614" lon="9.939762">
        <ele>2218.449129</ele>
        <time>2023-08-26T12:01:43.000Z</time>
      </trkpt>
      <trkpt lat="46.765749" lon="9.940034">
        <ele>2220.72142</ele>
        <time>2023-08-26T12:01:48.000Z</time>
      </trkpt>
      <trkpt lat="46.765052" lon="9.940056">
        <ele>2225.949684</ele>
        <time>2023-08-26T12:01:56.000Z</time>
      </trkpt>
      <trkpt lat="46.764396" lon="9.940266">
        <ele>2230.949693</ele>
        <time>2023-08-26T12:02:03.000Z</time>
      </trkpt>
      <trkpt lat="46.76386" lon="9.940122">
        <ele>2235.243257</ele>
        <time>2023-08-26T12:02:09.000Z</time>
      </trkpt>
      <trkpt lat="46.763341" lon="9.940301">
        <ele>2239.814331</ele>
        <time>2023-08-26T12:02:15.000Z</time>
      </trkpt>
      <trkpt lat="46.762856" lon="9.940355">
        <ele>2244.174855</ele>
        <time>2023-08-26T12:02:20.000Z</time>
      </trkpt>
      <trkpt lat="46.76249" lon="9.940485">
        <ele>2247.486277</ele>
        <time>2023-08-26T12:02:24.000Z</time>
      </trkpt>
      <trkpt lat="46.761756" lon="9.940263">
        <ele>2254.466252</ele>
        <time>2023-08-26T12:02:32.000Z</time>
      </trkpt>
      <trkpt lat="46.761268" lon="9.940487">
        <ele>2259.273579</ele>
        <time>2023-08-26T12:02:38.000Z</time>
      </trkpt>
      <trkpt lat="46.761095" lon="9.940414">
        <ele>2260.981302</ele>
        <time>2023-08-26T12:02:40.000Z</time>
      </trkpt>
      <trkpt lat="46.760683" lon="9.939836">
        <ele>2266.329851</ele>
        <time>2023-08-26T12:02:46.000Z</time>
      </trkpt>
      <trkpt lat="46.760526" lon="9.939792">
        <ele>2267.955051</ele>
        <time>2023-08-26T12:02:48.000Z</time>
      </trkpt>
      <trkpt lat="46.75926" lon="9.940161">
        <ele>2280.56358</ele>
        <time>2023-08-26T12:03:02.000Z</time>
      </trkpt>
      <trkpt lat="46.758655" lon="9.940093">
        <ele>2286.427704</ele>
        <time>2023-08-26T12:03:09.000Z</time>
      </trkpt>
      <trkpt lat="46.758003" lon="9.940469">
        <ele>2292.900495</ele>
        <time>2023-08-26T12:03:17.000Z</time>
      </trkpt>
      <trkpt lat="46.75727" lon="9.940655">
        <ele>2299.747298</ele>
        <time>2023-08-26T12:03:25.000Z</time>
      </trkpt>
      <trkpt lat="46.75661" lon="9.941003">
        <ele>2306.249555</ele>
        <time>2023-08-26T12:03:33.000Z</time>
      </trkpt>
      <trkpt lat="46.756516" lon="9.940945">
        <ele>2307.097895</ele>
        <time>2023-08-26T12:03:34.000Z</time>
      </trkpt>
      <trkpt lat="46.756486" lon="9.940745">
        <ele>2308.370753</ele>
        <time>2023-08-26T12:03:36.000Z</time>
      </trkpt>
      <trkpt lat="46.756899" lon="9.939416">
        <ele>2317.509423</ele>
        <time>2023-08-26T12:03:47.000Z</time>
      </trkpt>
      <trkpt lat="46.756905" lon="9.939274">
        <ele>2318.430021</ele>
        <time>2023-08-26T12:03:48.000Z</time>
      </trkpt>
      <trkpt lat="46.756811" lon="9.939215">
        <ele>2319.338843</ele>
        <time>2023-08-26T12:03:49.000Z</time>
      </trkpt>
      <trkpt lat="46.755834" lon="9.939907">
        <ele>2329.254715</ele>
        <time>2023-08-26T12:04:01.000Z</time>
      </trkpt>
      <trkpt lat="46.755662" lon="9.940482">
        <ele>2333.093933</ele>
        <time>2023-08-26T12:04:06.000Z</time>
      </trkpt>
      <trkpt lat="46.755554" lon="9.940686">
        <ele>2334.868878</ele>
        <time>2023-08-26T12:04:08.000Z</time>
      </trkpt>
      <trkpt lat="46.754981" lon="9.941115">
        <ele>2341.044415</ele>
        <time>2023-08-26T12:04:15.000Z</time>
      </trkpt>
      <trkpt lat="46.754272" lon="9.941241">
        <ele>2348.02757</ele>
        <time>2023-08-26T12:04:23.000Z</time>
      </trkpt>
      <trkpt lat="46.753991" lon="9.941428">
        <ele>2351.013267</ele>
        <time>2023-08-26T12:04:26.000Z</time>
      </trkpt>
      <trkpt lat="46.753809" lon="9.941786">
        <ele>2353.828242</ele>
        <time>2023-08-26T12:04:29.000Z</time>
      </trkpt>
      <trkpt lat="46.753746" lon="9.942434">
        <ele>2357.987284</ele>
        <time>2023-08-26T12:04:34.000Z</time>
      </trkpt>
      <trkpt lat="46.753416" lon="9.942781">
        <ele>2361.66622</ele>
        <time>2023-08-26T12:04:39.000Z</time>
      </trkpt>
      <trkpt lat="46.752883" lon="9.943105">
        <ele>2367.029072</ele>
        <time>2023-08-26T12:04:45.000Z</time>
      </trkpt>
      <trkpt lat="46.752379" lon="9.943943">
        <ele>2372.004653</ele>
        <time>2023-08-26T12:04:54.000Z</time>
      </trkpt>
      <trkpt lat="46.752341" lon="9.944012">
        <ele>2372.290633</ele>
        <time>2023-08-26T12:04:55.000Z</time>
      </trkpt>
      <trkpt lat="46.751987" lon="9.945167">
        <ele>2377.689127</ele>
        <time>2023-08-26T12:05:05.000Z</time>
      </trkpt>
      <trkpt lat="46.751784" lon="9.945627">
        <ele>2379.17521</ele>
        <time>2023-08-26T12:05:09.000Z</time>
      </trkpt>
      <trkpt lat="46.751156" lon="9.946506">
        <ele>2380.937995</ele>
        <time>2023-08-26T12:05:19.000Z</time>
      </trkpt>
      <trkpt lat="46.750967" lon="9.946718">
        <ele>2381.424497</ele>
        <time>2023-08-26T12:05:22.000Z</time>
      </trkpt>
      <trkpt lat="46.750466" lon="9.947213">
        <ele>2382.416407</ele>
        <time>2023-08-26T12:05:29.000Z</time>
      </trkpt>
      <trkpt lat="46.749996" lon="9.947724">
        <ele>2382.471719</ele>
        <time>2023-08-26T12:05:36.000Z</time>
      </trkpt>
      <trkpt lat="46.749729" lon="9.947977">
        <ele>2382.502759</ele>
        <time>2023-08-26T12:05:40.000Z</time>
      </trkpt>
      <trkpt lat="46.749555" lon="9.948154">
        <ele>2382.52306</ele>
        <time>2023-08-26T12:05:42.000Z</time>
      </trkpt>
      <trkpt lat="46.749301" lon="9.948333">
        <ele>2382.548985</ele>
        <time>2023-08-26T12:05:45.000Z</time>
      </trkpt>
      <trkpt lat="46.748891" lon="9.948645">
        <ele>2382.380803</ele>
        <time>2023-08-26T12:05:50.000Z</time>
      </trkpt>
      <trkpt lat="46.748694" lon="9.948848">
        <ele>2382.14962</ele>
        <time>2023-08-26T12:05:53.000Z</time>
      </trkpt>
      <trkpt lat="46.748464" lon="9.94918">
        <ele>2381.825019</ele>
        <time>2023-08-26T12:05:57.000Z</time>
      </trkpt>
      <trkpt lat="46.747319" lon="9.950526">
        <ele>2378.396658</ele>
        <time>2023-08-26T12:06:13.000Z</time>
      </trkpt>
      <trkpt lat="46.746943" lon="9.951181">
        <ele>2375.171406</ele>
        <time>2023-08-26T12:06:20.000Z</time>
      </trkpt>
      <trkpt lat="46.746895" lon="9.951366">
        <ele>2374.460013</ele>
        <time>2023-08-26T12:06:22.000Z</time>
      </trkpt>
      <trkpt lat="46.746894" lon="9.951652">
        <ele>2373.347147</ele>
        <time>2023-08-26T12:06:24.000Z</time>
      </trkpt>
      <trkpt lat="46.746957" lon="9.952175">
        <ele>2371.369924</ele>
        <time>2023-08-26T12:06:28.000Z</time>
      </trkpt>
      <trkpt lat="46.747027" lon="9.952681">
        <ele>2369.501624</ele>
        <time>2023-08-26T12:06:32.000Z</time>
      </trkpt>
      <trkpt lat="46.747052" lon="9.952854">
        <ele>2368.831799</ele>
        <time>2023-08-26T12:06:33.000Z</time>
      </trkpt>
      <trkpt lat="46.747038" lon="9.953047">
        <ele>2368.200282</ele>
        <time>2023-08-26T12:06:34.000Z</time>
      </trkpt>
      <trkpt lat="46.746882" lon="9.953702">
        <ele>2365.686928</ele>
        <time>2023-08-26T12:06:39.000Z</time>
      </trkpt>
      <trkpt lat="46.746102" lon="9.954968">
        <ele>2360.897451</ele>
        <time>2023-08-26T12:06:52.000Z</time>
      </trkpt>
      <trkpt lat="46.745843" lon="9.955611">
        <ele>2359.984518</ele>
        <time>2023-08-26T12:06:58.000Z</time>
      </trkpt>
      <trkpt lat="46.745516" lon="9.95669">
        <ele>2358.526513</ele>
        <time>2023-08-26T12:07:07.000Z</time>
      </trkpt>
      <trkpt lat="46.745367" lon="9.957318">
        <ele>2357.078983</ele>
        <time>2023-08-26T12:07:12.000Z</time>
      </trkpt>
      <trkpt lat="46.745288" lon="9.957602">
        <ele>2356.289836</ele>
        <time>2023-08-26T12:07:14.000Z</time>
      </trkpt>
      <trkpt lat="46.745156" lon="9.958226">
        <ele>2354.662545</ele>
        <time>2023-08-26T12:07:19.000Z</time>
      </trkpt>
      <trkpt lat="46.74513" lon="9.958383">
        <ele>2354.26996</ele>
        <time>2023-08-26T12:07:20.000Z</time>
      </trkpt>
      <trkpt lat="46.745002" lon="9.959098">
        <ele>2352.410571</ele>
        <time>2023-08-26T12:07:26.000Z</time>
      </trkpt>
      <trkpt lat="46.744924" lon="9.959573">
        <ele>2350.366935</ele>
        <time>2023-08-26T12:07:30.000Z</time>
      </trkpt>
      <trkpt lat="46.744846" lon="9.959926">
        <ele>2347.910838</ele>
        <time>2023-08-26T12:07:33.000Z</time>
      </trkpt>
      <trkpt lat="46.744709" lon="9.960459">
        <ele>2344.168394</ele>
        <time>2023-08-26T12:07:37.000Z</time>
      </trkpt>
      <trkpt lat="46.744338" lon="9.961621">
        <ele>2335.826843</ele>
        <time>2023-08-26T12:07:47.000Z</time>
      </trkpt>
      <trkpt lat="46.74415" lon="9.962216">
        <ele>2330.500306</ele>
        <time>2023-08-26T12:07:52.000Z</time>
      </trkpt>
      <trkpt lat="46.74392" lon="9.96366">
        <ele>2317.606335</ele>
        <time>2023-08-26T12:08:03.000Z</time>
      </trkpt>
      <trkpt lat="46.743579" lon="9.964622">
        <ele>2309.014377</ele>
        <time>2023-08-26T12:08:11.000Z</time>
      </trkpt>
      <trkpt lat="46.743242" lon="9.96521">
        <ele>2303.540999</ele>
        <time>2023-08-26T12:08:17.000Z</time>
      </trkpt>
      <trkpt lat="46.742507" lon="9.965695">
        <ele>2295.268332</ele>
        <time>2023-08-26T12:08:26.000Z</time>
      </trkpt>
      <trkpt lat="46.742129" lon="9.96617">
        <ele>2290.697252</ele>
        <time>2023-08-26T12:08:32.000Z</time>
      </trkpt>
      <trkpt lat="46.742037" lon="9.966382">
        <ele>2289.10759</ele>
        <time>2023-08-26T12:08:34.000Z</time>
      </trkpt>
      <trkpt lat="46.741774" lon="9.967313">
        <ele>2283.187322</ele>
        <time>2023-08-26T12:08:42.000Z</time>
      </trkpt>
      <trkpt lat="46.741638" lon="9.967697">
        <ele>2280.676013</ele>
        <time>2023-08-26T12:08:45.000Z</time>
      </trkpt>
      <trkpt lat="46.741577" lon="9.967955">
        <ele>2279.070267</ele>
        <time>2023-08-26T12:08:47.000Z</time>
      </trkpt>
      <trkpt lat="46.741598" lon="9.968264">
        <ele>2277.158217</ele>
        <time>2023-08-26T12:08:49.000Z</time>
      </trkpt>
      <trkpt lat="46.741674" lon="9.969047">
        <ele>2271.579366</ele>
        <time>2023-08-26T12:08:55.000Z</time>
      </trkpt>
      <trkpt lat="46.741728" lon="9.969537">
        <ele>2267.991362</ele>
        <time>2023-08-26T12:08:59.000Z</time>
      </trkpt>
      <trkpt lat="46.742013" lon="9.970734">
        <ele>2259.13984</ele>
        <time>2023-08-26T12:09:09.000Z</time>
      </trkpt>
      <trkpt lat="46.742353" lon="9.971435">
        <ele>2253.050037</ele>
        <time>2023-08-26T12:09:16.000Z</time>
      </trkpt>
      <trkpt lat="46.742414" lon="9.971635">
        <ele>2251.559394</ele>
        <time>2023-08-26T12:09:18.000Z</time>
      </trkpt>
      <trkpt lat="46.74243" lon="9.972293">
        <ele>2246.935606</ele>
        <time>2023-08-26T12:09:23.000Z</time>
      </trkpt>
      <trkpt lat="46.742532" lon="9.972318">
        <ele>2245.998652</ele>
        <time>2023-08-26T12:09:24.000Z</time>
      </trkpt>
      <trkpt lat="46.742555" lon="9.972227">
        <ele>2245.266402</ele>
        <time>2023-08-26T12:09:25.000Z</time>
      </trkpt>
      <trkpt lat="46.74273" lon="9.971315">
        <ele>2239.313258</ele>
        <time>2023-08-26T12:09:32.000Z</time>
      </trkpt>
      <trkpt lat="46.742787" lon="9.971268">
        <ele>2238.902206</ele>
        <time>2023-08-26T12:09:33.000Z</time>
      </trkpt>
      <trkpt lat="46.74287" lon="9.971312">
        <ele>2238.241842</ele>
        <time>2023-08-26T12:09:34.000Z</time>
      </trkpt>
      <trkpt lat="46.74287" lon="9.972339">
        <ele>2233.117062</ele>
        <time>2023-08-26T12:09:42.000Z</time>
      </trkpt>
      <trkpt lat="46.742359" lon="9.973759">
        <ele>2225.40335</ele>
        <time>2023-08-26T12:09:54.000Z</time>
      </trkpt>
      <trkpt lat="46.742299" lon="9.974209">
        <ele>2223.403808</ele>
        <time>2023-08-26T12:09:57.000Z</time>
      </trkpt>
      <trkpt lat="46.74239" lon="9.97492">
        <ele>2220.188851</ele>
        <time>2023-08-26T12:10:03.000Z</time>
      </trkpt>
      <trkpt lat="46.742628" lon="9.975478">
        <ele>2217.286887</ele>
        <time>2023-08-26T12:10:08.000Z</time>
      </trkpt>
      <trkpt lat="46.742901" lon="9.975929">
        <ele>2214.046562</ele>
        <time>2023-08-26T12:10:13.000Z</time>
      </trkpt>
      <trkpt lat="46.742984" lon="9.976127">
        <ele>2212.683917</ele>
        <time>2023-08-26T12:10:15.000Z</time>
      </trkpt>
      <trkpt lat="46.743028" lon="9.976303">
        <ele>2211.463421</ele>
        <time>2023-08-26T12:10:16.000Z</time>
      </trkpt>
      <trkpt lat="46.743214" lon="9.977298">
        <ele>2205.394914</ele>
        <time>2023-08-26T12:10:24.000Z</time>
      </trkpt>
      <trkpt lat="46.743467" lon="9.978107">
        <ele>2199.907767</ele>
        <time>2023-08-26T12:10:31.000Z</time>
      </trkpt>
      <trkpt lat="46.743769" lon="9.979091">
        <ele>2191.391937</ele>
        <time>2023-08-26T12:10:39.000Z</time>
      </trkpt>
      <trkpt lat="46.743908" lon="9.979607">
        <ele>2187.082671</ele>
        <time>2023-08-26T12:10:43.000Z</time>
      </trkpt>
      <trkpt lat="46.744116" lon="9.980688">
        <ele>2177.918463</ele>
        <time>2023-08-26T12:10:52.000Z</time>
      </trkpt>
      <trkpt lat="46.744244" lon="9.982059">
        <ele>2165.162177</ele>
        <time>2023-08-26T12:11:03.000Z</time>
      </trkpt>
      <trkpt lat="46.744238" lon="9.982221">
        <ele>2163.779137</ele>
        <time>2023-08-26T12:11:04.000Z</time>
      </trkpt>
      <trkpt lat="46.744164" lon="9.982796">
        <ele>2158.324037</ele>
        <time>2023-08-26T12:11:08.000Z</time>
      </trkpt>
      <trkpt lat="46.744234" lon="9.983202">
        <ele>2154.623288</ele>
        <time>2023-08-26T12:11:11.000Z</time>
      </trkpt>
      <trkpt lat="46.744287" lon="9.983514">
        <ele>2151.61219</ele>
        <time>2023-08-26T12:11:13.000Z</time>
      </trkpt>
      <trkpt lat="46.744411" lon="9.984047">
        <ele>2146.482953</ele>
        <time>2023-08-26T12:11:17.000Z</time>
      </trkpt>
      <trkpt lat="46.744624" lon="9.984697">
        <ele>2139.986912</ele>
        <time>2023-08-26T12:11:23.000Z</time>
      </trkpt>
      <trkpt lat="46.7447" lon="9.985151">
        <ele>2135.834982</ele>
        <time>2023-08-26T12:11:27.000Z</time>
      </trkpt>
      <trkpt lat="46.744737" lon="9.98641">
        <ele>2124.94376</ele>
        <time>2023-08-26T12:11:37.000Z</time>
      </trkpt>
      <trkpt lat="46.744594" lon="9.987269">
        <ele>2117.587785</ele>
        <time>2023-08-26T12:11:44.000Z</time>
      </trkpt>
      <trkpt lat="46.744641" lon="9.987783">
        <ele>2113.385721</ele>
        <time>2023-08-26T12:11:48.000Z</time>
      </trkpt>
      <trkpt lat="46.744614" lon="9.987844">
        <ele>2112.778614</ele>
        <time>2023-08-26T12:11:49.000Z</time>
      </trkpt>
      <trkpt lat="46.744537" lon="9.987871">
        <ele>2111.754275</ele>
        <time>2023-08-26T12:11:50.000Z</time>
      </trkpt>
      <trkpt lat="46.744499" lon="9.987822">
        <ele>2111.06581</ele>
        <time>2023-08-26T12:11:51.000Z</time>
      </trkpt>
      <trkpt lat="46.744361" lon="9.986239">
        <ele>2097.225398</ele>
        <time>2023-08-26T12:12:03.000Z</time>
      </trkpt>
      <trkpt lat="46.744271" lon="9.986147">
        <ele>2095.868214</ele>
        <time>2023-08-26T12:12:04.000Z</time>
      </trkpt>
      <trkpt lat="46.744213" lon="9.986202">
        <ele>2095.082172</ele>
        <time>2023-08-26T12:12:05.000Z</time>
      </trkpt>
      <trkpt lat="46.744158" lon="9.987992">
        <ele>2079.679883</ele>
        <time>2023-08-26T12:12:19.000Z</time>
      </trkpt>
      <trkpt lat="46.744249" lon="9.988525">
        <ele>2074.973182</ele>
        <time>2023-08-26T12:12:23.000Z</time>
      </trkpt>
      <trkpt lat="46.744739" lon="9.989973">
        <ele>2062.061168</ele>
        <time>2023-08-26T12:12:35.000Z</time>
      </trkpt>
      <trkpt lat="46.744923" lon="9.990319">
        <ele>2059.021613</ele>
        <time>2023-08-26T12:12:38.000Z</time>
      </trkpt>
      <trkpt lat="46.745225" lon="9.990718">
        <ele>2054.984493</ele>
        <time>2023-08-26T12:12:43.000Z</time>
      </trkpt>
      <trkpt lat="46.745322" lon="9.990965">
        <ele>2053.04431</ele>
        <time>2023-08-26T12:12:45.000Z</time>
      </trkpt>
      <trkpt lat="46.745428" lon="9.991271">
        <ele>2050.79806</ele>
        <time>2023-08-26T12:12:48.000Z</time>
      </trkpt>
      <trkpt lat="46.745614" lon="9.992598">
        <ele>2040.277714</ele>
        <time>2023-08-26T12:12:58.000Z</time>
      </trkpt>
      <trkpt lat="46.745919" lon="9.993325">
        <ele>2033.120057</ele>
        <time>2023-08-26T12:13:05.000Z</time>
      </trkpt>
      <trkpt lat="46.746013" lon="9.994311">
        <ele>2024.78619</ele>
        <time>2023-08-26T12:13:13.000Z</time>
      </trkpt>
      <trkpt lat="46.746327" lon="9.995025">
        <ele>2016.87099</ele>
        <time>2023-08-26T12:13:20.000Z</time>
      </trkpt>
      <trkpt lat="46.746733" lon="9.996548">
        <ele>2001.65608</ele>
        <time>2023-08-26T12:13:33.000Z</time>
      </trkpt>
      <trkpt lat="46.746943" lon="9.997029">
        <ele>1997.698487</ele>
        <time>2023-08-26T12:13:37.000Z</time>
      </trkpt>
      <trkpt lat="46.74767" lon="9.998156">
        <ele>1987.355475</ele>
        <time>2023-08-26T12:13:49.000Z</time>
      </trkpt>
      <trkpt lat="46.747932" lon="9.999121">
        <ele>1980.739806</ele>
        <time>2023-08-26T12:13:57.000Z</time>
      </trkpt>
      <trkpt lat="46.748455" lon="10.000525">
        <ele>1970.979758</ele>
        <time>2023-08-26T12:14:09.000Z</time>
      </trkpt>
      <trkpt lat="46.749182" lon="10.001348">
        <ele>1962.20116</ele>
        <time>2023-08-26T12:14:19.000Z</time>
      </trkpt>
      <trkpt lat="46.750235" lon="10.004322">
        <ele>1940.17882</ele>
        <time>2023-08-26T12:14:45.000Z</time>
      </trkpt>
      <trkpt lat="46.750413" lon="10.004777">
        <ele>1936.796614</ele>
        <time>2023-08-26T12:14:49.000Z</time>
      </trkpt>
      <trkpt lat="46.75049" lon="10.005069">
        <ele>1934.927</ele>
        <time>2023-08-26T12:14:51.000Z</time>
      </trkpt>
      <trkpt lat="46.75059" lon="10.005943">
        <ele>1929.714791</ele>
        <time>2023-08-26T12:14:58.000Z</time>
      </trkpt>
      <trkpt lat="46.750498" lon="10.00676">
        <ele>1925.134992</ele>
        <time>2023-08-26T12:15:04.000Z</time>
      </trkpt>
      <trkpt lat="46.750516" lon="10.007103">
        <ele>1923.145465</ele>
        <time>2023-08-26T12:15:07.000Z</time>
      </trkpt>
      <trkpt lat="46.750581" lon="10.007323">
        <ele>1921.889298</ele>
        <time>2023-08-26T12:15:09.000Z</time>
      </trkpt>
      <trkpt lat="46.750681" lon="10.00753">
        <ele>1920.502072</ele>
        <time>2023-08-26T12:15:11.000Z</time>
      </trkpt>
      <trkpt lat="46.750897" lon="10.007857">
        <ele>1917.846442</ele>
        <time>2023-08-26T12:15:14.000Z</time>
      </trkpt>
      <trkpt lat="46.751042" lon="10.008209">
        <ele>1915.108318</ele>
        <time>2023-08-26T12:15:17.000Z</time>
      </trkpt>
      <trkpt lat="46.751303" lon="10.009264">
        <ele>1907.614019</ele>
        <time>2023-08-26T12:15:26.000Z</time>
      </trkpt>
      <trkpt lat="46.751364" lon="10.009686">
        <ele>1904.758</ele>
        <time>2023-08-26T12:15:29.000Z</time>
      </trkpt>
      <trkpt lat="46.751412" lon="10.010356">
        <ele>1900.282716</ele>
        <time>2023-08-26T12:15:34.000Z</time>
      </trkpt>
      <trkpt lat="46.7513" lon="10.011045">
        <ele>1895.12452</ele>
        <time>2023-08-26T12:15:39.000Z</time>
      </trkpt>
      <trkpt lat="46.751375" lon="10.01193">
        <ele>1888.666055</ele>
        <time>2023-08-26T12:15:46.000Z</time>
      </trkpt>
      <trkpt lat="46.751462" lon="10.015189">
        <ele>1866.30147</ele>
        <time>2023-08-26T12:16:11.000Z</time>
      </trkpt>
      <trkpt lat="46.751688" lon="10.01699">
        <ele>1856.813968</ele>
        <time>2023-08-26T12:16:25.000Z</time>
      </trkpt>
      <trkpt lat="46.752319" lon="10.019148">
        <ele>1847.231355</ele>
        <time>2023-08-26T12:16:43.000Z</time>
      </trkpt>
      <trkpt lat="46.753165" lon="10.021334">
        <ele>1839.69515</ele>
        <time>2023-08-26T12:17:02.000Z</time>
      </trkpt>
      <trkpt lat="46.754531" lon="10.023632">
        <ele>1831.64704</ele>
        <time>2023-08-26T12:17:25.000Z</time>
      </trkpt>
      <trkpt lat="46.754615" lon="10.023849">
        <ele>1830.984339</ele>
        <time>2023-08-26T12:17:27.000Z</time>
      </trkpt>
      <trkpt lat="46.754659" lon="10.023964">
        <ele>1830.620913</ele>
        <time>2023-08-26T12:17:28.000Z</time>
      </trkpt>
      <trkpt lat="46.754734" lon="10.024259">
        <ele>1829.809864</ele>
        <time>2023-08-26T12:17:30.000Z</time>
      </trkpt>
      <trkpt lat="46.75474" lon="10.024303">
        <ele>1829.68509</ele>
        <time>2023-08-26T12:17:30.000Z</time>
      </trkpt>
      <trkpt lat="46.754779" lon="10.024606">
        <ele>1828.847502</ele>
        <time>2023-08-26T12:17:32.000Z</time>
      </trkpt>
      <trkpt lat="46.754776" lon="10.02482">
        <ele>1828.250633</ele>
        <time>2023-08-26T12:17:34.000Z</time>
      </trkpt>
      <trkpt lat="46.754791" lon="10.025772">
        <ele>1825.429596</ele>
        <time>2023-08-26T12:17:41.000Z</time>
      </trkpt>
      <trkpt lat="46.754966" lon="10.026983">
        <ele>1821.803643</ele>
        <time>2023-08-26T12:17:50.000Z</time>
      </trkpt>
      <trkpt lat="46.754945" lon="10.027374">
        <ele>1820.574923</ele>
        <time>2023-08-26T12:17:53.000Z</time>
      </trkpt>
      <trkpt lat="46.754778" lon="10.028677">
        <ele>1815.751172</ele>
        <time>2023-08-26T12:18:03.000Z</time>
      </trkpt>
      <trkpt lat="46.754658" lon="10.029192">
        <ele>1813.763163</ele>
        <time>2023-08-26T12:18:07.000Z</time>
      </trkpt>
      <trkpt lat="46.754631" lon="10.029448">
        <ele>1812.866454</ele>
        <time>2023-08-26T12:18:09.000Z</time>
      </trkpt>
      <trkpt lat="46.754599" lon="10.03023">
        <ele>1810.528288</ele>
        <time>2023-08-26T12:18:15.000Z</time>
      </trkpt>
      <trkpt lat="46.754571" lon="10.030641">
        <ele>1809.514393</ele>
        <time>2023-08-26T12:18:18.000Z</time>
      </trkpt>
      <trkpt lat="46.754557" lon="10.030765">
        <ele>1809.246907</ele>
        <time>2023-08-26T12:18:19.000Z</time>
      </trkpt>
      <trkpt lat="46.754575" lon="10.031902">
        <ele>1806.47894</ele>
        <time>2023-08-26T12:18:28.000Z</time>
      </trkpt>
      <trkpt lat="46.754437" lon="10.033328">
        <ele>1804.566325</ele>
        <time>2023-08-26T12:18:39.000Z</time>
      </trkpt>
      <trkpt lat="46.753977" lon="10.034652">
        <ele>1803.514637</ele>
        <time>2023-08-26T12:18:50.000Z</time>
      </trkpt>
      <trkpt lat="46.753287" lon="10.036056">
        <ele>1801.498603</ele>
        <time>2023-08-26T12:19:03.000Z</time>
      </trkpt>
      <trkpt lat="46.753055" lon="10.036738">
        <ele>1800.580421</ele>
        <time>2023-08-26T12:19:09.000Z</time>
      </trkpt>
      <trkpt lat="46.752842" lon="10.037535">
        <ele>1799.35755</ele>
        <time>2023-08-26T12:19:16.000Z</time>
      </trkpt>
      <trkpt lat="46.752638" lon="10.038493">
        <ele>1797.781407</ele>
        <time>2023-08-26T12:19:24.000Z</time>
      </trkpt>
      <trkpt lat="46.752424" lon="10.039621">
        <ele>1795.949446</ele>
        <time>2023-08-26T12:19:33.000Z</time>
      </trkpt>
      <trkpt lat="46.752279" lon="10.040424">
        <ele>1794.147591</ele>
        <time>2023-08-26T12:19:39.000Z</time>
      </trkpt>
      <trkpt lat="46.751825" lon="10.042037">
        <ele>1790.420894</ele>
        <time>2023-08-26T12:19:52.000Z</time>
      </trkpt>
      <trkpt lat="46.751798" lon="10.043041">
        <ele>1786.707107</ele>
        <time>2023-08-26T12:20:00.000Z</time>
      </trkpt>
      <trkpt lat="46.751615" lon="10.043998">
        <ele>1783.022029</ele>
        <time>2023-08-26T12:20:08.000Z</time>
      </trkpt>
      <trkpt lat="46.751797" lon="10.045802">
        <ele>1773.202318</ele>
        <time>2023-08-26T12:20:22.000Z</time>
      </trkpt>
      <trkpt lat="46.751694" lon="10.047795">
        <ele>1758.681658</ele>
        <time>2023-08-26T12:20:37.000Z</time>
      </trkpt>
      <trkpt lat="46.751586" lon="10.048122">
        <ele>1755.100644</ele>
        <time>2023-08-26T12:20:40.000Z</time>
      </trkpt>
      <trkpt lat="46.751062" lon="10.048624">
        <ele>1746.430105</ele>
        <time>2023-08-26T12:20:47.000Z</time>
      </trkpt>
      <trkpt lat="46.75093" lon="10.048835">
        <ele>1743.587521</ele>
        <time>2023-08-26T12:20:49.000Z</time>
      </trkpt>
      <trkpt lat="46.750669" lon="10.049957">
        <ele>1731.70781</ele>
        <time>2023-08-26T12:20:58.000Z</time>
      </trkpt>
      <trkpt lat="46.750575" lon="10.05093">
        <ele>1721.451103</ele>
        <time>2023-08-26T12:21:06.000Z</time>
      </trkpt>
      <trkpt lat="46.750732" lon="10.052123">
        <ele>1709.647982</ele>
        <time>2023-08-26T12:21:15.000Z</time>
      </trkpt>
      <trkpt lat="46.751016" lon="10.05285">
        <ele>1703.884221</ele>
        <time>2023-08-26T12:21:21.000Z</time>
      </trkpt>
      <trkpt lat="46.751159" lon="10.053556">
        <ele>1698.700982</ele>
        <time>2023-08-26T12:21:27.000Z</time>
      </trkpt>
      <trkpt lat="46.751303" lon="10.053885">
        <ele>1696.025203</ele>
        <time>2023-08-26T12:21:30.000Z</time>
      </trkpt>
      <trkpt lat="46.751731" lon="10.054314">
        <ele>1691.123473</ele>
        <time>2023-08-26T12:21:36.000Z</time>
      </trkpt>
      <trkpt lat="46.751819" lon="10.054516">
        <ele>1689.589703</ele>
        <time>2023-08-26T12:21:38.000Z</time>
      </trkpt>
      <trkpt lat="46.752114" lon="10.055227">
        <ele>1684.374319</ele>
        <time>2023-08-26T12:21:44.000Z</time>
      </trkpt>
      <trkpt lat="46.75216" lon="10.055538">
        <ele>1682.438146</ele>
        <time>2023-08-26T12:21:46.000Z</time>
      </trkpt>
      <trkpt lat="46.751981" lon="10.056313">
        <ele>1677.308378</ele>
        <time>2023-08-26T12:21:52.000Z</time>
      </trkpt>
      <trkpt lat="46.752001" lon="10.057014">
        <ele>1672.1615</ele>
        <time>2023-08-26T12:21:57.000Z</time>
      </trkpt>
      <trkpt lat="46.751603" lon="10.058784">
        <ele>1658.346942</ele>
        <time>2023-08-26T12:22:11.000Z</time>
      </trkpt>
      <trkpt lat="46.751687" lon="10.059197">
        <ele>1655.0734</ele>
        <time>2023-08-26T12:22:14.000Z</time>
      </trkpt>
      <trkpt lat="46.751907" lon="10.059725">
        <ele>1650.554877</ele>
        <time>2023-08-26T12:22:19.000Z</time>
      </trkpt>
      <trkpt lat="46.752079" lon="10.059883">
        <ele>1648.310362</ele>
        <time>2023-08-26T12:22:21.000Z</time>
      </trkpt>
      <trkpt lat="46.752071" lon="10.060071">
        <ele>1646.905181</ele>
        <time>2023-08-26T12:22:22.000Z</time>
      </trkpt>
      <trkpt lat="46.752021" lon="10.060122">
        <ele>1646.330728</ele>
        <time>2023-08-26T12:22:23.000Z</time>
      </trkpt>
      <trkpt lat="46.751962" lon="10.060112">
        <ele>1645.710767</ele>
        <time>2023-08-26T12:22:24.000Z</time>
      </trkpt>
      <trkpt lat="46.751173" lon="10.058742">
        <ele>1633.376764</ele>
        <time>2023-08-26T12:22:38.000Z</time>
      </trkpt>
      <trkpt lat="46.75111" lon="10.05835">
        <ele>1631.025121</ele>
        <time>2023-08-26T12:22:41.000Z</time>
      </trkpt>
      <trkpt lat="46.751189" lon="10.057311">
        <ele>1624.672774</ele>
        <time>2023-08-26T12:22:49.000Z</time>
      </trkpt>
      <trkpt lat="46.751159" lon="10.056807">
        <ele>1621.709281</ele>
        <time>2023-08-26T12:22:53.000Z</time>
      </trkpt>
      <trkpt lat="46.751123" lon="10.056646">
        <ele>1620.564756</ele>
        <time>2023-08-26T12:22:54.000Z</time>
      </trkpt>
      <trkpt lat="46.751025" lon="10.056658">
        <ele>1619.646991</ele>
        <time>2023-08-26T12:22:55.000Z</time>
      </trkpt>
      <trkpt lat="46.750994" lon="10.056729">
        <ele>1619.090849</ele>
        <time>2023-08-26T12:22:56.000Z</time>
      </trkpt>
      <trkpt lat="46.751047" lon="10.057353">
        <ele>1615.256103</ele>
        <time>2023-08-26T12:23:01.000Z</time>
      </trkpt>
      <trkpt lat="46.750784" lon="10.058485">
        <ele>1607.806462</ele>
        <time>2023-08-26T12:23:10.000Z</time>
      </trkpt>
      <trkpt lat="46.750753" lon="10.058887">
        <ele>1605.278015</ele>
        <time>2023-08-26T12:23:13.000Z</time>
      </trkpt>
      <trkpt lat="46.751182" lon="10.060374">
        <ele>1594.603807</ele>
        <time>2023-08-26T12:23:25.000Z</time>
      </trkpt>
      <trkpt lat="46.751109" lon="10.060456">
        <ele>1593.71392</ele>
        <time>2023-08-26T12:23:26.000Z</time>
      </trkpt>
      <trkpt lat="46.751018" lon="10.060407">
        <ele>1592.814767</ele>
        <time>2023-08-26T12:23:27.000Z</time>
      </trkpt>
      <trkpt lat="46.750891" lon="10.059911">
        <ele>1589.28234</ele>
        <time>2023-08-26T12:23:31.000Z</time>
      </trkpt>
      <trkpt lat="46.750485" lon="10.059202">
        <ele>1583.707109</ele>
        <time>2023-08-26T12:23:38.000Z</time>
      </trkpt>
      <trkpt lat="46.75044" lon="10.058724">
        <ele>1580.897549</ele>
        <time>2023-08-26T12:23:42.000Z</time>
      </trkpt>
      <trkpt lat="46.750372" lon="10.058677">
        <ele>1580.241617</ele>
        <time>2023-08-26T12:23:43.000Z</time>
      </trkpt>
      <trkpt lat="46.750293" lon="10.058811">
        <ele>1579.21927</ele>
        <time>2023-08-26T12:23:44.000Z</time>
      </trkpt>
      <trkpt lat="46.75055" lon="10.059855">
        <ele>1572.636147</ele>
        <time>2023-08-26T12:23:52.000Z</time>
      </trkpt>
      <trkpt lat="46.750502" lon="10.060497">
        <ele>1569.668745</ele>
        <time>2023-08-26T12:23:57.000Z</time>
      </trkpt>
      <trkpt lat="46.75054" lon="10.061152">
        <ele>1566.584354</ele>
        <time>2023-08-26T12:24:02.000Z</time>
      </trkpt>
      <trkpt lat="46.750389" lon="10.061809">
        <ele>1563.429134</ele>
        <time>2023-08-26T12:24:07.000Z</time>
      </trkpt>
      <trkpt lat="46.750386" lon="10.062094">
        <ele>1562.125069</ele>
        <time>2023-08-26T12:24:09.000Z</time>
      </trkpt>
      <trkpt lat="46.75058" lon="10.062951">
        <ele>1559.483813</ele>
        <time>2023-08-26T12:24:16.000Z</time>
      </trkpt>
      <trkpt lat="46.750904" lon="10.065235">
        <ele>1555.215399</ele>
        <time>2023-08-26T12:24:34.000Z</time>
      </trkpt>
      <trkpt lat="46.750885" lon="10.065591">
        <ele>1554.861964</ele>
        <time>2023-08-26T12:24:37.000Z</time>
      </trkpt>
      <trkpt lat="46.750817" lon="10.065728">
        <ele>1554.698766</ele>
        <time>2023-08-26T12:24:38.000Z</time>
      </trkpt>
      <trkpt lat="46.750721" lon="10.065812">
        <ele>1554.542881</ele>
        <time>2023-08-26T12:24:39.000Z</time>
      </trkpt>
      <trkpt lat="46.750369" lon="10.066134">
        <ele>1553.927758</ele>
        <time>2023-08-26T12:24:44.000Z</time>
      </trkpt>
      <trkpt lat="46.750231" lon="10.066309">
        <ele>1553.671361</ele>
        <time>2023-08-26T12:24:46.000Z</time>
      </trkpt>
      <trkpt lat="46.750154" lon="10.066457">
        <ele>1553.480191</ele>
        <time>2023-08-26T12:24:47.000Z</time>
      </trkpt>
      <trkpt lat="46.750118" lon="10.066819">
        <ele>1553.116159</ele>
        <time>2023-08-26T12:24:50.000Z</time>
      </trkpt>
      <trkpt lat="46.750111" lon="10.068562">
        <ele>1546.970092</ele>
        <time>2023-08-26T12:25:03.000Z</time>
      </trkpt>
      <trkpt lat="46.750063" lon="10.069178">
        <ele>1544.529402</ele>
        <time>2023-08-26T12:25:08.000Z</time>
      </trkpt>
      <trkpt lat="46.749596" lon="10.070504">
        <ele>1534.660023</ele>
        <time>2023-08-26T12:25:19.000Z</time>
      </trkpt>
      <trkpt lat="46.749405" lon="10.070814">
        <ele>1531.452138</ele>
        <time>2023-08-26T12:25:22.000Z</time>
      </trkpt>
      <trkpt lat="46.749124" lon="10.071108">
        <ele>1527.3871</ele>
        <time>2023-08-26T12:25:26.000Z</time>
      </trkpt>
      <trkpt lat="46.748915" lon="10.071513">
        <ele>1523.459866</ele>
        <time>2023-08-26T12:25:30.000Z</time>
      </trkpt>
      <trkpt lat="46.748801" lon="10.071979">
        <ele>1518.741279</ele>
        <time>2023-08-26T12:25:34.000Z</time>
      </trkpt>
      <trkpt lat="46.748476" lon="10.074182">
        <ele>1495.613094</ele>
        <time>2023-08-26T12:25:51.000Z</time>
      </trkpt>
      <trkpt lat="46.748383" lon="10.074358">
        <ele>1493.745461</ele>
        <time>2023-08-26T12:25:53.000Z</time>
      </trkpt>
      <trkpt lat="46.747814" lon="10.074484">
        <ele>1486.88255</ele>
        <time>2023-08-26T12:25:59.000Z</time>
      </trkpt>
      <trkpt lat="46.746915" lon="10.075074">
        <ele>1475.196518</ele>
        <time>2023-08-26T12:26:10.000Z</time>
      </trkpt>
      <trkpt lat="46.746515" lon="10.075231">
        <ele>1471.189611</ele>
        <time>2023-08-26T12:26:15.000Z</time>
      </trkpt>
      <trkpt lat="46.746449" lon="10.075326">
        <ele>1470.441982</ele>
        <time>2023-08-26T12:26:16.000Z</time>
      </trkpt>
      <trkpt lat="46.746476" lon="10.075444">
        <ele>1469.698805</ele>
        <time>2023-08-26T12:26:17.000Z</time>
      </trkpt>
      <trkpt lat="46.746524" lon="10.075447">
        <ele>1469.290592</ele>
        <time>2023-08-26T12:26:18.000Z</time>
      </trkpt>
      <trkpt lat="46.747163" lon="10.075356">
        <ele>1463.792593</ele>
        <time>2023-08-26T12:26:25.000Z</time>
      </trkpt>
      <trkpt lat="46.748162" lon="10.075469">
        <ele>1455.424041</ele>
        <time>2023-08-26T12:26:36.000Z</time>
      </trkpt>
      <trkpt lat="46.748338" lon="10.07562">
        <ele>1453.867046</ele>
        <time>2023-08-26T12:26:38.000Z</time>
      </trkpt>
      <trkpt lat="46.748678" lon="10.0763">
        <ele>1449.174276</ele>
        <time>2023-08-26T12:26:44.000Z</time>
      </trkpt>
      <trkpt lat="46.748784" lon="10.076417">
        <ele>1448.099198</ele>
        <time>2023-08-26T12:26:45.000Z</time>
      </trkpt>
      <trkpt lat="46.748987" lon="10.076318">
        <ele>1446.407426</ele>
        <time>2023-08-26T12:26:47.000Z</time>
      </trkpt>
      <trkpt lat="46.749133" lon="10.075884">
        <ele>1443.76175</ele>
        <time>2023-08-26T12:26:51.000Z</time>
      </trkpt>
      <trkpt lat="46.749242" lon="10.075857">
        <ele>1443.017889</ele>
        <time>2023-08-26T12:26:52.000Z</time>
      </trkpt>
      <trkpt lat="46.749277" lon="10.075904">
        <ele>1442.711713</ele>
        <time>2023-08-26T12:26:53.000Z</time>
      </trkpt>
      <trkpt lat="46.749282" lon="10.075968">
        <ele>1442.364181</ele>
        <time>2023-08-26T12:26:53.000Z</time>
      </trkpt>
      <trkpt lat="46.749283" lon="10.076821">
        <ele>1438.61441</ele>
        <time>2023-08-26T12:27:00.000Z</time>
      </trkpt>
      <trkpt lat="46.749281" lon="10.077041">
        <ele>1437.659288</ele>
        <time>2023-08-26T12:27:02.000Z</time>
      </trkpt>
      <trkpt lat="46.74923" lon="10.077467">
        <ele>1435.71807</ele>
        <time>2023-08-26T12:27:05.000Z</time>
      </trkpt>
      <trkpt lat="46.749027" lon="10.078748">
        <ele>1433.095408</ele>
        <time>2023-08-26T12:27:15.000Z</time>
      </trkpt>
      <trkpt lat="46.749012" lon="10.078943">
        <ele>1433.406445</ele>
        <time>2023-08-26T12:27:16.000Z</time>
      </trkpt>
      <trkpt lat="46.749028" lon="10.078738">
        <ele>1433.71749</ele>
        <time>2023-08-26T12:27:18.000Z</time>
      </trkpt>
      <trkpt lat="46.749229" lon="10.077473">
        <ele>1435.705863</ele>
        <time>2023-08-26T12:27:28.000Z</time>
      </trkpt>
      <trkpt lat="46.749276" lon="10.077035">
        <ele>1436.514629</ele>
        <time>2023-08-26T12:27:31.000Z</time>
      </trkpt>
      <trkpt lat="46.749283" lon="10.076828">
        <ele>1437.691875</ele>
        <time>2023-08-26T12:27:33.000Z</time>
      </trkpt>
      <trkpt lat="46.74929" lon="10.075978">
        <ele>1442.313679</ele>
        <time>2023-08-26T12:27:39.000Z</time>
      </trkpt>
      <trkpt lat="46.749271" lon="10.075907">
        <ele>1442.742047</ele>
        <time>2023-08-26T12:27:40.000Z</time>
      </trkpt>
      <trkpt lat="46.749235" lon="10.075851">
        <ele>1443.119432</ele>
        <time>2023-08-26T12:27:41.000Z</time>
      </trkpt>
      <trkpt lat="46.749127" lon="10.075884">
        <ele>1444.036285</ele>
        <time>2023-08-26T12:27:42.000Z</time>
      </trkpt>
      <trkpt lat="46.74898" lon="10.076324">
        <ele>1446.645794</ele>
        <time>2023-08-26T12:27:46.000Z</time>
      </trkpt>
      <trkpt lat="46.748778" lon="10.076421">
        <ele>1448.299569</ele>
        <time>2023-08-26T12:27:48.000Z</time>
      </trkpt>
      <trkpt lat="46.748677" lon="10.076307">
        <ele>1449.350537</ele>
        <time>2023-08-26T12:27:49.000Z</time>
      </trkpt>
      <trkpt lat="46.748337" lon="10.075612">
        <ele>1453.961146</ele>
        <time>2023-08-26T12:27:56.000Z</time>
      </trkpt>
      <trkpt lat="46.748168" lon="10.075469">
        <ele>1455.493681</ele>
        <time>2023-08-26T12:27:58.000Z</time>
      </trkpt>
      <trkpt lat="46.747176" lon="10.075356">
        <ele>1463.475316</ele>
        <time>2023-08-26T12:28:09.000Z</time>
      </trkpt>
      <trkpt lat="46.746536" lon="10.075458">
        <ele>1469.407386</ele>
        <time>2023-08-26T12:28:16.000Z</time>
      </trkpt>
      <trkpt lat="46.746476" lon="10.075429">
        <ele>1469.870211</ele>
        <time>2023-08-26T12:28:17.000Z</time>
      </trkpt>
      <trkpt lat="46.746452" lon="10.075316">
        <ele>1470.712828</ele>
        <time>2023-08-26T12:28:18.000Z</time>
      </trkpt>
      <trkpt lat="46.746507" lon="10.075213">
        <ele>1471.560495</ele>
        <time>2023-08-26T12:28:19.000Z</time>
      </trkpt>
      <trkpt lat="46.746915" lon="10.075076">
        <ele>1475.630834</ele>
        <time>2023-08-26T12:28:24.000Z</time>
      </trkpt>
      <trkpt lat="46.747806" lon="10.074482">
        <ele>1486.386142</ele>
        <time>2023-08-26T12:28:35.000Z</time>
      </trkpt>
      <trkpt lat="46.748387" lon="10.074361">
        <ele>1494.418977</ele>
        <time>2023-08-26T12:28:42.000Z</time>
      </trkpt>
      <trkpt lat="46.748481" lon="10.074189">
        <ele>1496.479007</ele>
        <time>2023-08-26T12:28:44.000Z</time>
      </trkpt>
      <trkpt lat="46.748806" lon="10.071984">
        <ele>1518.059818</ele>
        <time>2023-08-26T12:29:01.000Z</time>
      </trkpt>
      <trkpt lat="46.74892" lon="10.071509">
        <ele>1522.894219</ele>
        <time>2023-08-26T12:29:05.000Z</time>
      </trkpt>
      <trkpt lat="46.749121" lon="10.071108">
        <ele>1527.653505</ele>
        <time>2023-08-26T12:29:09.000Z</time>
      </trkpt>
      <trkpt lat="46.749419" lon="10.070814">
        <ele>1532.504221</ele>
        <time>2023-08-26T12:29:13.000Z</time>
      </trkpt>
      <trkpt lat="46.749601" lon="10.070513">
        <ele>1535.033183</ele>
        <time>2023-08-26T12:29:16.000Z</time>
      </trkpt>
      <trkpt lat="46.750069" lon="10.069165">
        <ele>1544.329388</ele>
        <time>2023-08-26T12:29:28.000Z</time>
      </trkpt>
      <trkpt lat="46.750117" lon="10.068552">
        <ele>1548.214405</ele>
        <time>2023-08-26T12:29:33.000Z</time>
      </trkpt>
      <trkpt lat="46.750131" lon="10.066822">
        <ele>1552.290682</ele>
        <time>2023-08-26T12:29:46.000Z</time>
      </trkpt>
      <trkpt lat="46.750145" lon="10.066454">
        <ele>1553.083062</ele>
        <time>2023-08-26T12:29:49.000Z</time>
      </trkpt>
      <trkpt lat="46.750235" lon="10.066314">
        <ele>1553.499153</ele>
        <time>2023-08-26T12:29:50.000Z</time>
      </trkpt>
      <trkpt lat="46.750361" lon="10.066144">
        <ele>1554.057194</ele>
        <time>2023-08-26T12:29:52.000Z</time>
      </trkpt>
      <trkpt lat="46.750719" lon="10.065811">
        <ele>1554.858501</ele>
        <time>2023-08-26T12:29:57.000Z</time>
      </trkpt>
      <trkpt lat="46.750812" lon="10.065724">
        <ele>1555.016089</ele>
        <time>2023-08-26T12:29:58.000Z</time>
      </trkpt>
      <trkpt lat="46.750885" lon="10.065589">
        <ele>1555.181102</ele>
        <time>2023-08-26T12:29:59.000Z</time>
      </trkpt>
      <trkpt lat="46.750902" lon="10.065243">
        <ele>1555.538419</ele>
        <time>2023-08-26T12:30:02.000Z</time>
      </trkpt>
      <trkpt lat="46.750568" lon="10.062961">
        <ele>1559.75932</ele>
        <time>2023-08-26T12:30:20.000Z</time>
      </trkpt>
      <trkpt lat="46.750379" lon="10.062084">
        <ele>1562.704338</ele>
        <time>2023-08-26T12:30:27.000Z</time>
      </trkpt>
      <trkpt lat="46.750397" lon="10.061803">
        <ele>1563.607857</ele>
        <time>2023-08-26T12:30:29.000Z</time>
      </trkpt>
      <trkpt lat="46.750538" lon="10.061157">
        <ele>1565.989778</ele>
        <time>2023-08-26T12:30:34.000Z</time>
      </trkpt>
      <trkpt lat="46.750507" lon="10.060489">
        <ele>1569.538022</ele>
        <time>2023-08-26T12:30:39.000Z</time>
      </trkpt>
      <trkpt lat="46.750561" lon="10.059861">
        <ele>1572.951653</ele>
        <time>2023-08-26T12:30:44.000Z</time>
      </trkpt>
      <trkpt lat="46.750295" lon="10.058803">
        <ele>1578.997586</ele>
        <time>2023-08-26T12:30:53.000Z</time>
      </trkpt>
      <trkpt lat="46.750374" lon="10.05869">
        <ele>1579.996158</ele>
        <time>2023-08-26T12:30:54.000Z</time>
      </trkpt>
      <trkpt lat="46.750447" lon="10.058731">
        <ele>1580.697414</ele>
        <time>2023-08-26T12:30:55.000Z</time>
      </trkpt>
      <trkpt lat="46.750495" lon="10.059208">
        <ele>1583.701031</ele>
        <time>2023-08-26T12:30:59.000Z</time>
      </trkpt>
      <trkpt lat="46.750887" lon="10.059911">
        <ele>1589.536206</ele>
        <time>2023-08-26T12:31:06.000Z</time>
      </trkpt>
      <trkpt lat="46.751021" lon="10.06041">
        <ele>1592.870889</ele>
        <time>2023-08-26T12:31:10.000Z</time>
      </trkpt>
      <trkpt lat="46.751106" lon="10.060461">
        <ele>1593.719711</ele>
        <time>2023-08-26T12:31:11.000Z</time>
      </trkpt>
      <trkpt lat="46.751182" lon="10.060366">
        <ele>1594.559794</ele>
        <time>2023-08-26T12:31:12.000Z</time>
      </trkpt>
      <trkpt lat="46.750753" lon="10.058895">
        <ele>1605.138862</ele>
        <time>2023-08-26T12:31:24.000Z</time>
      </trkpt>
      <trkpt lat="46.750783" lon="10.05849">
        <ele>1607.820981</ele>
        <time>2023-08-26T12:31:27.000Z</time>
      </trkpt>
      <trkpt lat="46.751049" lon="10.057339">
        <ele>1615.527484</ele>
        <time>2023-08-26T12:31:36.000Z</time>
      </trkpt>
      <trkpt lat="46.750989" lon="10.056734">
        <ele>1619.120846</ele>
        <time>2023-08-26T12:31:41.000Z</time>
      </trkpt>
      <trkpt lat="46.751013" lon="10.056653">
        <ele>1619.641981</ele>
        <time>2023-08-26T12:31:42.000Z</time>
      </trkpt>
      <trkpt lat="46.751127" lon="10.056647">
        <ele>1620.501974</ele>
        <time>2023-08-26T12:31:43.000Z</time>
      </trkpt>
      <trkpt lat="46.751158" lon="10.05682">
        <ele>1621.574446</ele>
        <time>2023-08-26T12:31:44.000Z</time>
      </trkpt>
      <trkpt lat="46.751191" lon="10.057302">
        <ele>1624.430434</ele>
        <time>2023-08-26T12:31:48.000Z</time>
      </trkpt>
      <trkpt lat="46.751113" lon="10.05836">
        <ele>1630.845964</ele>
        <time>2023-08-26T12:31:56.000Z</time>
      </trkpt>
      <trkpt lat="46.75117" lon="10.058732">
        <ele>1633.45365</ele>
        <time>2023-08-26T12:31:59.000Z</time>
      </trkpt>
      <trkpt lat="46.751976" lon="10.060118">
        <ele>1645.420086</ele>
        <time>2023-08-26T12:32:13.000Z</time>
      </trkpt>
      <trkpt lat="46.752027" lon="10.060125">
        <ele>1645.974727</ele>
        <time>2023-08-26T12:32:14.000Z</time>
      </trkpt>
      <trkpt lat="46.752071" lon="10.060077">
        <ele>1646.541185</ele>
        <time>2023-08-26T12:32:15.000Z</time>
      </trkpt>
      <trkpt lat="46.752066" lon="10.059881">
        <ele>1647.994131</ele>
        <time>2023-08-26T12:32:17.000Z</time>
      </trkpt>
      <trkpt lat="46.751904" lon="10.059713">
        <ele>1650.314926</ele>
        <time>2023-08-26T12:32:19.000Z</time>
      </trkpt>
      <trkpt lat="46.751692" lon="10.059191">
        <ele>1654.987034</ele>
        <time>2023-08-26T12:32:24.000Z</time>
      </trkpt>
      <trkpt lat="46.751598" lon="10.058767">
        <ele>1658.364014</ele>
        <time>2023-08-26T12:32:27.000Z</time>
      </trkpt>
      <trkpt lat="46.751997" lon="10.057027">
        <ele>1672.014509</ele>
        <time>2023-08-26T12:32:41.000Z</time>
      </trkpt>
      <trkpt lat="46.751977" lon="10.056325">
        <ele>1676.925452</ele>
        <time>2023-08-26T12:32:46.000Z</time>
      </trkpt>
      <trkpt lat="46.752158" lon="10.055544">
        <ele>1682.719843</ele>
        <time>2023-08-26T12:32:52.000Z</time>
      </trkpt>
      <trkpt lat="46.752116" lon="10.055239">
        <ele>1684.884922</ele>
        <time>2023-08-26T12:32:54.000Z</time>
      </trkpt>
      <trkpt lat="46.751813" lon="10.054506">
        <ele>1689.868514</ele>
        <time>2023-08-26T12:33:01.000Z</time>
      </trkpt>
      <trkpt lat="46.75173" lon="10.054314">
        <ele>1691.334115</ele>
        <time>2023-08-26T12:33:03.000Z</time>
      </trkpt>
      <trkpt lat="46.751313" lon="10.053892">
        <ele>1695.741259</ele>
        <time>2023-08-26T12:33:09.000Z</time>
      </trkpt>
      <trkpt lat="46.75116" lon="10.053565">
        <ele>1698.035205</ele>
        <time>2023-08-26T12:33:12.000Z</time>
      </trkpt>
      <trkpt lat="46.751019" lon="10.052844">
        <ele>1703.426304</ele>
        <time>2023-08-26T12:33:18.000Z</time>
      </trkpt>
      <trkpt lat="46.750727" lon="10.052132">
        <ele>1710.579093</ele>
        <time>2023-08-26T12:33:24.000Z</time>
      </trkpt>
      <trkpt lat="46.750581" lon="10.050923">
        <ele>1721.05521</ele>
        <time>2023-08-26T12:33:33.000Z</time>
      </trkpt>
      <trkpt lat="46.75067" lon="10.049948">
        <ele>1731.23009</ele>
        <time>2023-08-26T12:33:41.000Z</time>
      </trkpt>
      <trkpt lat="46.750929" lon="10.048842">
        <ele>1743.961306</ele>
        <time>2023-08-26T12:33:50.000Z</time>
      </trkpt>
      <trkpt lat="46.75107" lon="10.048625">
        <ele>1747.14008</ele>
        <time>2023-08-26T12:33:52.000Z</time>
      </trkpt>
      <trkpt lat="46.751577" lon="10.048129">
        <ele>1755.436511</ele>
        <time>2023-08-26T12:33:59.000Z</time>
      </trkpt>
      <trkpt lat="46.75169" lon="10.047802">
        <ele>1758.417353</ele>
        <time>2023-08-26T12:34:02.000Z</time>
      </trkpt>
      <trkpt lat="46.751792" lon="10.045795">
        <ele>1773.819091</ele>
        <time>2023-08-26T12:34:17.000Z</time>
      </trkpt>
      <trkpt lat="46.751616" lon="10.043996">
        <ele>1782.993527</ele>
        <time>2023-08-26T12:34:31.000Z</time>
      </trkpt>
      <trkpt lat="46.751802" lon="10.043034">
        <ele>1786.995678</ele>
        <time>2023-08-26T12:34:39.000Z</time>
      </trkpt>
      <trkpt lat="46.751821" lon="10.042025">
        <ele>1789.910524</ele>
        <time>2023-08-26T12:34:47.000Z</time>
      </trkpt>
      <trkpt lat="46.752281" lon="10.040427">
        <ele>1794.301302</ele>
        <time>2023-08-26T12:35:00.000Z</time>
      </trkpt>
      <trkpt lat="46.75242" lon="10.039611">
        <ele>1795.767</ele>
        <time>2023-08-26T12:35:06.000Z</time>
      </trkpt>
      <trkpt lat="46.752629" lon="10.038499">
        <ele>1797.797159</ele>
        <time>2023-08-26T12:35:15.000Z</time>
      </trkpt>
      <trkpt lat="46.752841" lon="10.03753">
        <ele>1799.307415</ele>
        <time>2023-08-26T12:35:23.000Z</time>
      </trkpt>
      <trkpt lat="46.753066" lon="10.036735">
        <ele>1800.581299</ele>
        <time>2023-08-26T12:35:30.000Z</time>
      </trkpt>
      <trkpt lat="46.753289" lon="10.036069">
        <ele>1801.681871</ele>
        <time>2023-08-26T12:35:36.000Z</time>
      </trkpt>
      <trkpt lat="46.753965" lon="10.034655">
        <ele>1803.286331</ele>
        <time>2023-08-26T12:35:49.000Z</time>
      </trkpt>
      <trkpt lat="46.754442" lon="10.033319">
        <ele>1804.782584</ele>
        <time>2023-08-26T12:36:00.000Z</time>
      </trkpt>
      <trkpt lat="46.754579" lon="10.031897">
        <ele>1806.478207</ele>
        <time>2023-08-26T12:36:11.000Z</time>
      </trkpt>
      <trkpt lat="46.754564" lon="10.030759">
        <ele>1808.862555</ele>
        <time>2023-08-26T12:36:20.000Z</time>
      </trkpt>
      <trkpt lat="46.754571" lon="10.030647">
        <ele>1809.226336</ele>
        <time>2023-08-26T12:36:21.000Z</time>
      </trkpt>
      <trkpt lat="46.754605" lon="10.030236">
        <ele>1810.605302</ele>
        <time>2023-08-26T12:36:24.000Z</time>
      </trkpt>
      <trkpt lat="46.754631" lon="10.029438">
        <ele>1813.188631</ele>
        <time>2023-08-26T12:36:30.000Z</time>
      </trkpt>
      <trkpt lat="46.754657" lon="10.029197">
        <ele>1814.003516</ele>
        <time>2023-08-26T12:36:32.000Z</time>
      </trkpt>
      <trkpt lat="46.754775" lon="10.028669">
        <ele>1815.810113</ele>
        <time>2023-08-26T12:36:36.000Z</time>
      </trkpt>
      <trkpt lat="46.754943" lon="10.027369">
        <ele>1820.289082</ele>
        <time>2023-08-26T12:36:46.000Z</time>
      </trkpt>
      <trkpt lat="46.75495" lon="10.026981">
        <ele>1821.591884</ele>
        <time>2023-08-26T12:36:49.000Z</time>
      </trkpt>
      <trkpt lat="46.754791" lon="10.025764">
        <ele>1825.546894</ele>
        <time>2023-08-26T12:36:58.000Z</time>
      </trkpt>
      <trkpt lat="46.754774" lon="10.024816">
        <ele>1828.225586</ele>
        <time>2023-08-26T12:37:05.000Z</time>
      </trkpt>
      <trkpt lat="46.754782" lon="10.024606">
        <ele>1828.799844</ele>
        <time>2023-08-26T12:37:07.000Z</time>
      </trkpt>
      <trkpt lat="46.754736" lon="10.024308">
        <ele>1829.681196</ele>
        <time>2023-08-26T12:37:09.000Z</time>
      </trkpt>
      <trkpt lat="46.754726" lon="10.024257">
        <ele>1829.812495</ele>
        <time>2023-08-26T12:37:09.000Z</time>
      </trkpt>
      <trkpt lat="46.754653" lon="10.023968">
        <ele>1830.665929</ele>
        <time>2023-08-26T12:37:11.000Z</time>
      </trkpt>
      <trkpt lat="46.75462" lon="10.023856">
        <ele>1831.048363</ele>
        <time>2023-08-26T12:37:12.000Z</time>
      </trkpt>
      <trkpt lat="46.754526" lon="10.023633">
        <ele>1831.745686</ele>
        <time>2023-08-26T12:37:14.000Z</time>
      </trkpt>
      <trkpt lat="46.753174" lon="10.021328">
        <ele>1839.665224</ele>
        <time>2023-08-26T12:37:37.000Z</time>
      </trkpt>
      <trkpt lat="46.752325" lon="10.019157">
        <ele>1846.979368</ele>
        <time>2023-08-26T12:37:56.000Z</time>
      </trkpt>
      <trkpt lat="46.75168" lon="10.016982">
        <ele>1856.262199</ele>
        <time>2023-08-26T12:38:14.000Z</time>
      </trkpt>
      <trkpt lat="46.751463" lon="10.015194">
        <ele>1866.720418</ele>
        <time>2023-08-26T12:38:28.000Z</time>
      </trkpt>
      <trkpt lat="46.751378" lon="10.011935">
        <ele>1888.698212</ele>
        <time>2023-08-26T12:38:53.000Z</time>
      </trkpt>
      <trkpt lat="46.751296" lon="10.011053">
        <ele>1895.060021</ele>
        <time>2023-08-26T12:39:00.000Z</time>
      </trkpt>
      <trkpt lat="46.751405" lon="10.010345">
        <ele>1900.139447</ele>
        <time>2023-08-26T12:39:06.000Z</time>
      </trkpt>
      <trkpt lat="46.75136" lon="10.009689">
        <ele>1904.853071</ele>
        <time>2023-08-26T12:39:11.000Z</time>
      </trkpt>
      <trkpt lat="46.751316" lon="10.009264">
        <ele>1907.88765</ele>
        <time>2023-08-26T12:39:14.000Z</time>
      </trkpt>
      <trkpt lat="46.751045" lon="10.008216">
        <ele>1914.905378</ele>
        <time>2023-08-26T12:39:23.000Z</time>
      </trkpt>
      <trkpt lat="46.750892" lon="10.007862">
        <ele>1917.410704</ele>
        <time>2023-08-26T12:39:26.000Z</time>
      </trkpt>
      <trkpt lat="46.750684" lon="10.007536">
        <ele>1920.22928</ele>
        <time>2023-08-26T12:39:29.000Z</time>
      </trkpt>
      <trkpt lat="46.750594" lon="10.007314">
        <ele>1921.74366</ele>
        <time>2023-08-26T12:39:31.000Z</time>
      </trkpt>
      <trkpt lat="46.750515" lon="10.007118">
        <ele>1923.114969</ele>
        <time>2023-08-26T12:39:33.000Z</time>
      </trkpt>
      <trkpt lat="46.750497" lon="10.00676">
        <ele>1925.270523</ele>
        <time>2023-08-26T12:39:36.000Z</time>
      </trkpt>
      <trkpt lat="46.750584" lon="10.005946">
        <ele>1929.935337</ele>
        <time>2023-08-26T12:39:42.000Z</time>
      </trkpt>
      <trkpt lat="46.750497" lon="10.005066">
        <ele>1935.020776</ele>
        <time>2023-08-26T12:39:49.000Z</time>
      </trkpt>
      <trkpt lat="46.750429" lon="10.004793">
        <ele>1936.712882</ele>
        <time>2023-08-26T12:39:51.000Z</time>
      </trkpt>
      <trkpt lat="46.750221" lon="10.004333">
        <ele>1939.77401</ele>
        <time>2023-08-26T12:39:55.000Z</time>
      </trkpt>
      <trkpt lat="46.749186" lon="10.001345">
        <ele>1962.103007</ele>
        <time>2023-08-26T12:40:21.000Z</time>
      </trkpt>
      <trkpt lat="46.748449" lon="10.000529">
        <ele>1971.008609</ele>
        <time>2023-08-26T12:40:31.000Z</time>
      </trkpt>
      <trkpt lat="46.747925" lon="9.999124">
        <ele>1980.900199</ele>
        <time>2023-08-26T12:40:43.000Z</time>
      </trkpt>
      <trkpt lat="46.747668" lon="9.998166">
        <ele>1986.99802</ele>
        <time>2023-08-26T12:40:51.000Z</time>
      </trkpt>
      <trkpt lat="46.746949" lon="9.997031">
        <ele>1998.13518</ele>
        <time>2023-08-26T12:41:03.000Z</time>
      </trkpt>
      <trkpt lat="46.746733" lon="9.996553">
        <ele>2002.588251</ele>
        <time>2023-08-26T12:41:07.000Z</time>
      </trkpt>
      <trkpt lat="46.746324" lon="9.995031">
        <ele>2016.416494</ele>
        <time>2023-08-26T12:41:20.000Z</time>
      </trkpt>
      <trkpt lat="46.746006" lon="9.994308">
        <ele>2024.446604</ele>
        <time>2023-08-26T12:41:27.000Z</time>
      </trkpt>
      <trkpt lat="46.745905" lon="9.993324">
        <ele>2033.788332</ele>
        <time>2023-08-26T12:41:35.000Z</time>
      </trkpt>
      <trkpt lat="46.745614" lon="9.992592">
        <ele>2040.507069</ele>
        <time>2023-08-26T12:41:41.000Z</time>
      </trkpt>
      <trkpt lat="46.745421" lon="9.991271">
        <ele>2050.336651</ele>
        <time>2023-08-26T12:41:51.000Z</time>
      </trkpt>
      <trkpt lat="46.745324" lon="9.990952">
        <ele>2052.721802</ele>
        <time>2023-08-26T12:41:54.000Z</time>
      </trkpt>
      <trkpt lat="46.745218" lon="9.990721">
        <ele>2054.781961</ele>
        <time>2023-08-26T12:41:56.000Z</time>
      </trkpt>
      <trkpt lat="46.744915" lon="9.990317">
        <ele>2059.169585</ele>
        <time>2023-08-26T12:42:01.000Z</time>
      </trkpt>
      <trkpt lat="46.744735" lon="9.989978">
        <ele>2062.47744</ele>
        <time>2023-08-26T12:42:04.000Z</time>
      </trkpt>
      <trkpt lat="46.744244" lon="9.988524">
        <ele>2074.43398</ele>
        <time>2023-08-26T12:42:16.000Z</time>
      </trkpt>
      <trkpt lat="46.74415" lon="9.987991">
        <ele>2079.376637</ele>
        <time>2023-08-26T12:42:20.000Z</time>
      </trkpt>
      <trkpt lat="46.744218" lon="9.986188">
        <ele>2095.29349</ele>
        <time>2023-08-26T12:42:34.000Z</time>
      </trkpt>
      <trkpt lat="46.744265" lon="9.986143">
        <ele>2096.091727</ele>
        <time>2023-08-26T12:42:35.000Z</time>
      </trkpt>
      <trkpt lat="46.744363" lon="9.98625">
        <ele>2097.469946</ele>
        <time>2023-08-26T12:42:36.000Z</time>
      </trkpt>
      <trkpt lat="46.744501" lon="9.987812">
        <ele>2110.936629</ele>
        <time>2023-08-26T12:42:48.000Z</time>
      </trkpt>
      <trkpt lat="46.744549" lon="9.987879">
        <ele>2111.63764</ele>
        <time>2023-08-26T12:42:49.000Z</time>
      </trkpt>
      <trkpt lat="46.744619" lon="9.987847">
        <ele>2112.680643</ele>
        <time>2023-08-26T12:42:50.000Z</time>
      </trkpt>
      <trkpt lat="46.744638" lon="9.987779">
        <ele>2113.29881</ele>
        <time>2023-08-26T12:42:51.000Z</time>
      </trkpt>
      <trkpt lat="46.744592" lon="9.987284">
        <ele>2117.577447</ele>
        <time>2023-08-26T12:42:55.000Z</time>
      </trkpt>
      <trkpt lat="46.744737" lon="9.986414">
        <ele>2125.089727</ele>
        <time>2023-08-26T12:43:02.000Z</time>
      </trkpt>
      <trkpt lat="46.744702" lon="9.985148">
        <ele>2135.92173</ele>
        <time>2023-08-26T12:43:12.000Z</time>
      </trkpt>
      <trkpt lat="46.744627" lon="9.984694">
        <ele>2139.832146</ele>
        <time>2023-08-26T12:43:16.000Z</time>
      </trkpt>
      <trkpt lat="46.744413" lon="9.984048">
        <ele>2146.263598</ele>
        <time>2023-08-26T12:43:22.000Z</time>
      </trkpt>
      <trkpt lat="46.744283" lon="9.983511">
        <ele>2151.524539</ele>
        <time>2023-08-26T12:43:26.000Z</time>
      </trkpt>
      <trkpt lat="46.744229" lon="9.983196">
        <ele>2154.612946</ele>
        <time>2023-08-26T12:43:28.000Z</time>
      </trkpt>
      <trkpt lat="46.744153" lon="9.982803">
        <ele>2158.363133</ele>
        <time>2023-08-26T12:43:31.000Z</time>
      </trkpt>
      <trkpt lat="46.744237" lon="9.982227">
        <ele>2163.860615</ele>
        <time>2023-08-26T12:43:36.000Z</time>
      </trkpt>
      <trkpt lat="46.744245" lon="9.982067">
        <ele>2165.254406</ele>
        <time>2023-08-26T12:43:37.000Z</time>
      </trkpt>
      <trkpt lat="46.744099" lon="9.980698">
        <ele>2177.522848</ele>
        <time>2023-08-26T12:43:48.000Z</time>
      </trkpt>
      <trkpt lat="46.743909" lon="9.979595">
        <ele>2187.480408</ele>
        <time>2023-08-26T12:43:57.000Z</time>
      </trkpt>
      <trkpt lat="46.743761" lon="9.979089">
        <ele>2191.825109</ele>
        <time>2023-08-26T12:44:01.000Z</time>
      </trkpt>
      <trkpt lat="46.743462" lon="9.978109">
        <ele>2199.457249</ele>
        <time>2023-08-26T12:44:09.000Z</time>
      </trkpt>
      <trkpt lat="46.7432" lon="9.977281">
        <ele>2205.715301</ele>
        <time>2023-08-26T12:44:16.000Z</time>
      </trkpt>
      <trkpt lat="46.743035" lon="9.976307">
        <ele>2211.583383</ele>
        <time>2023-08-26T12:44:24.000Z</time>
      </trkpt>
      <trkpt lat="46.742982" lon="9.976127">
        <ele>2212.623888</ele>
        <time>2023-08-26T12:44:25.000Z</time>
      </trkpt>
      <trkpt lat="46.742901" lon="9.975934">
        <ele>2213.785556</ele>
        <time>2023-08-26T12:44:27.000Z</time>
      </trkpt>
      <trkpt lat="46.74262" lon="9.975474">
        <ele>2216.867736</ele>
        <time>2023-08-26T12:44:32.000Z</time>
      </trkpt>
      <trkpt lat="46.74238" lon="9.974919">
        <ele>2220.223545</ele>
        <time>2023-08-26T12:44:37.000Z</time>
      </trkpt>
      <trkpt lat="46.742301" lon="9.974203">
        <ele>2223.608263</ele>
        <time>2023-08-26T12:44:43.000Z</time>
      </trkpt>
      <trkpt lat="46.742357" lon="9.973768">
        <ele>2225.575895</ele>
        <time>2023-08-26T12:44:46.000Z</time>
      </trkpt>
      <trkpt lat="46.742868" lon="9.972344">
        <ele>2232.56442</ele>
        <time>2023-08-26T12:44:58.000Z</time>
      </trkpt>
      <trkpt lat="46.742868" lon="9.971313">
        <ele>2238.432551</ele>
        <time>2023-08-26T12:45:06.000Z</time>
      </trkpt>
      <trkpt lat="46.742788" lon="9.971272">
        <ele>2239.215248</ele>
        <time>2023-08-26T12:45:07.000Z</time>
      </trkpt>
      <trkpt lat="46.742739" lon="9.971324">
        <ele>2239.702452</ele>
        <time>2023-08-26T12:45:08.000Z</time>
      </trkpt>
      <trkpt lat="46.742564" lon="9.972227">
        <ele>2245.32273</ele>
        <time>2023-08-26T12:45:15.000Z</time>
      </trkpt>
      <trkpt lat="46.74252" lon="9.972329">
        <ele>2245.945296</ele>
        <time>2023-08-26T12:45:16.000Z</time>
      </trkpt>
      <trkpt lat="46.742433" lon="9.972294">
        <ele>2246.741878</ele>
        <time>2023-08-26T12:45:17.000Z</time>
      </trkpt>
      <trkpt lat="46.742417" lon="9.97164">
        <ele>2251.157524</ele>
        <time>2023-08-26T12:45:22.000Z</time>
      </trkpt>
      <trkpt lat="46.742356" lon="9.971449">
        <ele>2252.736414</ele>
        <time>2023-08-26T12:45:24.000Z</time>
      </trkpt>
      <trkpt lat="46.742017" lon="9.970721">
        <ele>2259.186704</ele>
        <time>2023-08-26T12:45:31.000Z</time>
      </trkpt>
      <trkpt lat="46.74173" lon="9.969547">
        <ele>2268.401308</ele>
        <time>2023-08-26T12:45:41.000Z</time>
      </trkpt>
      <trkpt lat="46.741661" lon="9.969043">
        <ele>2271.666241</ele>
        <time>2023-08-26T12:45:45.000Z</time>
      </trkpt>
      <trkpt lat="46.741593" lon="9.968258">
        <ele>2276.742796</ele>
        <time>2023-08-26T12:45:51.000Z</time>
      </trkpt>
      <trkpt lat="46.741594" lon="9.967947">
        <ele>2278.709595</ele>
        <time>2023-08-26T12:45:53.000Z</time>
      </trkpt>
      <trkpt lat="46.741621" lon="9.967694">
        <ele>2280.466847</ele>
        <time>2023-08-26T12:45:55.000Z</time>
      </trkpt>
      <trkpt lat="46.741769" lon="9.967314">
        <ele>2283.215111</ele>
        <time>2023-08-26T12:45:58.000Z</time>
      </trkpt>
      <trkpt lat="46.74204" lon="9.966388">
        <ele>2289.397988</ele>
        <time>2023-08-26T12:46:06.000Z</time>
      </trkpt>
      <trkpt lat="46.742132" lon="9.966161">
        <ele>2291.02853</ele>
        <time>2023-08-26T12:46:08.000Z</time>
      </trkpt>
      <trkpt lat="46.742515" lon="9.965697">
        <ele>2295.367586</ele>
        <time>2023-08-26T12:46:14.000Z</time>
      </trkpt>
      <trkpt lat="46.743244" lon="9.965218">
        <ele>2302.97414</ele>
        <time>2023-08-26T12:46:23.000Z</time>
      </trkpt>
      <trkpt lat="46.743573" lon="9.964608">
        <ele>2309.25015</ele>
        <time>2023-08-26T12:46:29.000Z</time>
      </trkpt>
      <trkpt lat="46.743915" lon="9.963664">
        <ele>2317.893947</ele>
        <time>2023-08-26T12:46:37.000Z</time>
      </trkpt>
      <trkpt lat="46.744161" lon="9.962219">
        <ele>2330.067596</ele>
        <time>2023-08-26T12:46:48.000Z</time>
      </trkpt>
      <trkpt lat="46.744338" lon="9.961609">
        <ele>2335.505946</ele>
        <time>2023-08-26T12:46:53.000Z</time>
      </trkpt>
      <trkpt lat="46.744694" lon="9.960451">
        <ele>2344.940315</ele>
        <time>2023-08-26T12:47:03.000Z</time>
      </trkpt>
      <trkpt lat="46.744849" lon="9.959918">
        <ele>2347.575405</ele>
        <time>2023-08-26T12:47:07.000Z</time>
      </trkpt>
      <trkpt lat="46.744924" lon="9.95956">
        <ele>2349.304766</ele>
        <time>2023-08-26T12:47:10.000Z</time>
      </trkpt>
      <trkpt lat="46.745001" lon="9.959099">
        <ele>2351.523513</ele>
        <time>2023-08-26T12:47:14.000Z</time>
      </trkpt>
      <trkpt lat="46.745126" lon="9.958376">
        <ele>2354.932589</ele>
        <time>2023-08-26T12:47:20.000Z</time>
      </trkpt>
      <trkpt lat="46.745151" lon="9.958236">
        <ele>2355.652358</ele>
        <time>2023-08-26T12:47:21.000Z</time>
      </trkpt>
      <trkpt lat="46.745282" lon="9.957602">
        <ele>2356.625668</ele>
        <time>2023-08-26T12:47:26.000Z</time>
      </trkpt>
      <trkpt lat="46.745355" lon="9.957321">
        <ele>2357.078883</ele>
        <time>2023-08-26T12:47:28.000Z</time>
      </trkpt>
      <trkpt lat="46.745519" lon="9.956695">
        <ele>2358.037132</ele>
        <time>2023-08-26T12:47:33.000Z</time>
      </trkpt>
      <trkpt lat="46.745858" lon="9.95561">
        <ele>2359.83795</ele>
        <time>2023-08-26T12:47:42.000Z</time>
      </trkpt>
      <trkpt lat="46.746096" lon="9.954965">
        <ele>2361.341063</ele>
        <time>2023-08-26T12:47:48.000Z</time>
      </trkpt>
      <trkpt lat="46.746883" lon="9.953701">
        <ele>2364.801424</ele>
        <time>2023-08-26T12:48:01.000Z</time>
      </trkpt>
      <trkpt lat="46.747035" lon="9.953041">
        <ele>2367.877262</ele>
        <time>2023-08-26T12:48:06.000Z</time>
      </trkpt>
      <trkpt lat="46.747042" lon="9.952865">
        <ele>2368.660846</ele>
        <time>2023-08-26T12:48:07.000Z</time>
      </trkpt>
      <trkpt lat="46.747037" lon="9.952683">
        <ele>2369.491973</ele>
        <time>2023-08-26T12:48:08.000Z</time>
      </trkpt>
      <trkpt lat="46.746955" lon="9.952161">
        <ele>2371.769322</ele>
        <time>2023-08-26T12:48:12.000Z</time>
      </trkpt>
      <trkpt lat="46.746889" lon="9.951656">
        <ele>2374.065754</ele>
        <time>2023-08-26T12:48:16.000Z</time>
      </trkpt>
      <trkpt lat="46.746897" lon="9.951366">
        <ele>2375.358278</ele>
        <time>2023-08-26T12:48:18.000Z</time>
      </trkpt>
      <trkpt lat="46.746958" lon="9.951183">
        <ele>2376.184537</ele>
        <time>2023-08-26T12:48:20.000Z</time>
      </trkpt>
      <trkpt lat="46.747313" lon="9.950513">
        <ele>2378.159285</ele>
        <time>2023-08-26T12:48:26.000Z</time>
      </trkpt>
      <trkpt lat="46.748468" lon="9.949185">
        <ele>2382.2057</ele>
        <time>2023-08-26T12:48:42.000Z</time>
      </trkpt>
      <trkpt lat="46.748701" lon="9.948844">
        <ele>2382.263457</ele>
        <time>2023-08-26T12:48:46.000Z</time>
      </trkpt>
      <trkpt lat="46.748878" lon="9.948628">
        <ele>2382.304599</ele>
        <time>2023-08-26T12:48:49.000Z</time>
      </trkpt>
      <trkpt lat="46.749312" lon="9.948326">
        <ele>2382.387853</ele>
        <time>2023-08-26T12:48:54.000Z</time>
      </trkpt>
      <trkpt lat="46.749557" lon="9.948143">
        <ele>2382.435818</ele>
        <time>2023-08-26T12:48:57.000Z</time>
      </trkpt>
      <trkpt lat="46.749725" lon="9.94798">
        <ele>2382.473403</ele>
        <time>2023-08-26T12:48:59.000Z</time>
      </trkpt>
      <trkpt lat="46.749998" lon="9.947715">
        <ele>2382.354074</ele>
        <time>2023-08-26T12:49:03.000Z</time>
      </trkpt>
      <trkpt lat="46.750455" lon="9.947226">
        <ele>2382.081218</ele>
        <time>2023-08-26T12:49:09.000Z</time>
      </trkpt>
      <trkpt lat="46.750969" lon="9.946723">
        <ele>2381.791585</ele>
        <time>2023-08-26T12:49:16.000Z</time>
      </trkpt>
      <trkpt lat="46.751151" lon="9.946497">
        <ele>2381.679497</ele>
        <time>2023-08-26T12:49:19.000Z</time>
      </trkpt>
      <trkpt lat="46.751776" lon="9.945639">
        <ele>2378.607251</ele>
        <time>2023-08-26T12:49:29.000Z</time>
      </trkpt>
      <trkpt lat="46.751995" lon="9.945162">
        <ele>2377.080117</ele>
        <time>2023-08-26T12:49:33.000Z</time>
      </trkpt>
      <trkpt lat="46.752352" lon="9.94401">
        <ele>2372.814108</ele>
        <time>2023-08-26T12:49:43.000Z</time>
      </trkpt>
      <trkpt lat="46.752374" lon="9.943949">
        <ele>2372.456148</ele>
        <time>2023-08-26T12:49:44.000Z</time>
      </trkpt>
      <trkpt lat="46.752876" lon="9.943102">
        <ele>2366.417744</ele>
        <time>2023-08-26T12:49:53.000Z</time>
      </trkpt>
      <trkpt lat="46.753426" lon="9.94279">
        <ele>2361.855951</ele>
        <time>2023-08-26T12:50:00.000Z</time>
      </trkpt>
      <trkpt lat="46.753738" lon="9.94243">
        <ele>2358.287719</ele>
        <time>2023-08-26T12:50:04.000Z</time>
      </trkpt>
      <trkpt lat="46.753804" lon="9.941776">
        <ele>2353.866891</ele>
        <time>2023-08-26T12:50:09.000Z</time>
      </trkpt>
      <trkpt lat="46.753989" lon="9.941424">
        <ele>2350.874733</ele>
        <time>2023-08-26T12:50:12.000Z</time>
      </trkpt>
      <trkpt lat="46.754276" lon="9.941246">
        <ele>2347.880159</ele>
        <time>2023-08-26T12:50:15.000Z</time>
      </trkpt>
      <trkpt lat="46.75498" lon="9.941103">
        <ele>2340.964624</ele>
        <time>2023-08-26T12:50:23.000Z</time>
      </trkpt>
      <trkpt lat="46.755552" lon="9.940688">
        <ele>2335.030015</ele>
        <time>2023-08-26T12:50:30.000Z</time>
      </trkpt>
      <trkpt lat="46.755651" lon="9.940472">
        <ele>2333.297007</ele>
        <time>2023-08-26T12:50:32.000Z</time>
      </trkpt>
      <trkpt lat="46.755828" lon="9.939903">
        <ele>2329.336673</ele>
        <time>2023-08-26T12:50:37.000Z</time>
      </trkpt>
      <trkpt lat="46.756819" lon="9.939202">
        <ele>2319.308077</ele>
        <time>2023-08-26T12:50:49.000Z</time>
      </trkpt>
      <trkpt lat="46.756901" lon="9.939285">
        <ele>2318.397402</ele>
        <time>2023-08-26T12:50:50.000Z</time>
      </trkpt>
      <trkpt lat="46.756895" lon="9.939419">
        <ele>2317.474902</ele>
        <time>2023-08-26T12:50:51.000Z</time>
      </trkpt>
      <trkpt lat="46.756483" lon="9.940752">
        <ele>2308.385435</ele>
        <time>2023-08-26T12:51:02.000Z</time>
      </trkpt>
      <trkpt lat="46.756513" lon="9.940937">
        <ele>2307.11053</ele>
        <time>2023-08-26T12:51:03.000Z</time>
      </trkpt>
      <trkpt lat="46.756601" lon="9.940989">
        <ele>2306.260818</ele>
        <time>2023-08-26T12:51:04.000Z</time>
      </trkpt>
      <trkpt lat="46.757282" lon="9.940661">
        <ele>2299.758557</ele>
        <time>2023-08-26T12:51:12.000Z</time>
      </trkpt>
      <trkpt lat="46.757997" lon="9.940464">
        <ele>2292.964765</ele>
        <time>2023-08-26T12:51:20.000Z</time>
      </trkpt>
      <trkpt lat="46.758644" lon="9.94009">
        <ele>2286.32562</ele>
        <time>2023-08-26T12:51:28.000Z</time>
      </trkpt>
      <trkpt lat="46.759262" lon="9.940158">
        <ele>2280.512437</ele>
        <time>2023-08-26T12:51:35.000Z</time>
      </trkpt>
      <trkpt lat="46.760519" lon="9.939783">
        <ele>2268.027459</ele>
        <time>2023-08-26T12:51:49.000Z</time>
      </trkpt>
      <trkpt lat="46.760683" lon="9.939851">
        <ele>2266.395185</ele>
        <time>2023-08-26T12:51:51.000Z</time>
      </trkpt>
      <trkpt lat="46.761086" lon="9.94041">
        <ele>2260.86414</ele>
        <time>2023-08-26T12:51:57.000Z</time>
      </trkpt>
      <trkpt lat="46.761265" lon="9.940473">
        <ele>2259.098125</ele>
        <time>2023-08-26T12:51:59.000Z</time>
      </trkpt>
      <trkpt lat="46.761744" lon="9.940266">
        <ele>2254.434453</ele>
        <time>2023-08-26T12:52:05.000Z</time>
      </trkpt>
      <trkpt lat="46.76249" lon="9.940482">
        <ele>2247.574822</ele>
        <time>2023-08-26T12:52:13.000Z</time>
      </trkpt>
      <trkpt lat="46.762863" lon="9.940357">
        <ele>2244.132431</ele>
        <time>2023-08-26T12:52:17.000Z</time>
      </trkpt>
      <trkpt lat="46.763347" lon="9.940315">
        <ele>2239.787941</ele>
        <time>2023-08-26T12:52:22.000Z</time>
      </trkpt>
      <trkpt lat="46.76385" lon="9.940134">
        <ele>2235.393934</ele>
        <time>2023-08-26T12:52:28.000Z</time>
      </trkpt>
      <trkpt lat="46.76439" lon="9.940256">
        <ele>2230.816392</ele>
        <time>2023-08-26T12:52:34.000Z</time>
      </trkpt>
      <trkpt lat="46.765054" lon="9.940057">
        <ele>2225.632048</ele>
        <time>2023-08-26T12:52:42.000Z</time>
      </trkpt>
      <trkpt lat="46.76575" lon="9.940039">
        <ele>2221.349263</ele>
        <time>2023-08-26T12:52:50.000Z</time>
      </trkpt>
      <trkpt lat="46.766133" lon="9.939759">
        <ele>2218.723866</ele>
        <time>2023-08-26T12:52:55.000Z</time>
      </trkpt>
      <trkpt lat="46.766231" lon="9.93985">
        <ele>2218.024343</ele>
        <time>2023-08-26T12:52:56.000Z</time>
      </trkpt>
      <trkpt lat="46.766257" lon="9.940011">
        <ele>2217.362899</ele>
        <time>2023-08-26T12:52:57.000Z</time>
      </trkpt>
      <trkpt lat="46.766102" lon="9.940322">
        <ele>2215.782761</ele>
        <time>2023-08-26T12:53:00.000Z</time>
      </trkpt>
      <trkpt lat="46.766009" lon="9.940416">
        <ele>2215.236789</ele>
        <time>2023-08-26T12:53:01.000Z</time>
      </trkpt>
      <trkpt lat="46.765841" lon="9.940515">
        <ele>2214.413793</ele>
        <time>2023-08-26T12:53:03.000Z</time>
      </trkpt>
      <trkpt lat="46.765663" lon="9.940659">
        <ele>2213.417961</ele>
        <time>2023-08-26T12:53:05.000Z</time>
      </trkpt>
      <trkpt lat="46.765598" lon="9.9408">
        <ele>2212.919405</ele>
        <time>2023-08-26T12:53:06.000Z</time>
      </trkpt>
      <trkpt lat="46.765587" lon="9.941018">
        <ele>2212.204105</ele>
        <time>2023-08-26T12:53:08.000Z</time>
      </trkpt>
      <trkpt lat="46.765668" lon="9.941316">
        <ele>2211.135903</ele>
        <time>2023-08-26T12:53:10.000Z</time>
      </trkpt>
      <trkpt lat="46.76574" lon="9.941423">
        <ele>2210.698587</ele>
        <time>2023-08-26T12:53:11.000Z</time>
      </trkpt>
      <trkpt lat="46.765817" lon="9.941473">
        <ele>2210.28971</ele>
        <time>2023-08-26T12:53:12.000Z</time>
      </trkpt>
      <trkpt lat="46.765933" lon="9.941485">
        <ele>2209.737559</ele>
        <time>2023-08-26T12:53:13.000Z</time>
      </trkpt>
      <trkpt lat="46.767538" lon="9.941043">
        <ele>2199.656317</ele>
        <time>2023-08-26T12:53:31.000Z</time>
      </trkpt>
      <trkpt lat="46.768063" lon="9.941341">
        <ele>2195.800537</ele>
        <time>2023-08-26T12:53:37.000Z</time>
      </trkpt>
      <trkpt lat="46.768247" lon="9.941322">
        <ele>2194.248079</ele>
        <time>2023-08-26T12:53:39.000Z</time>
      </trkpt>
      <trkpt lat="46.769731" lon="9.939943">
        <ele>2177.84798</ele>
        <time>2023-08-26T12:53:59.000Z</time>
      </trkpt>
      <trkpt lat="46.769877" lon="9.939599">
        <ele>2175.256011</ele>
        <time>2023-08-26T12:54:02.000Z</time>
      </trkpt>
      <trkpt lat="46.76994" lon="9.939337">
        <ele>2173.463528</ele>
        <time>2023-08-26T12:54:04.000Z</time>
      </trkpt>
      <trkpt lat="46.770091" lon="9.938403">
        <ele>2167.594392</ele>
        <time>2023-08-26T12:54:11.000Z</time>
      </trkpt>
      <trkpt lat="46.770163" lon="9.938252">
        <ele>2166.398201</ele>
        <time>2023-08-26T12:54:12.000Z</time>
      </trkpt>
      <trkpt lat="46.770412" lon="9.93789">
        <ele>2163.165842</ele>
        <time>2023-08-26T12:54:16.000Z</time>
      </trkpt>
      <trkpt lat="46.770696" lon="9.937728">
        <ele>2160.607859</ele>
        <time>2023-08-26T12:54:19.000Z</time>
      </trkpt>
      <trkpt lat="46.771343" lon="9.937812">
        <ele>2155.412517</ele>
        <time>2023-08-26T12:54:26.000Z</time>
      </trkpt>
      <trkpt lat="46.771479" lon="9.937671">
        <ele>2154.026248</ele>
        <time>2023-08-26T12:54:28.000Z</time>
      </trkpt>
      <trkpt lat="46.77183" lon="9.937032">
        <ele>2149.579842</ele>
        <time>2023-08-26T12:54:34.000Z</time>
      </trkpt>
      <trkpt lat="46.772088" lon="9.936865">
        <ele>2147.432713</ele>
        <time>2023-08-26T12:54:37.000Z</time>
      </trkpt>
      <trkpt lat="46.772521" lon="9.936759">
        <ele>2143.588756</ele>
        <time>2023-08-26T12:54:42.000Z</time>
      </trkpt>
      <trkpt lat="46.772524" lon="9.936638">
        <ele>2142.827328</ele>
        <time>2023-08-26T12:54:43.000Z</time>
      </trkpt>
      <trkpt lat="46.772449" lon="9.93656">
        <ele>2142.119707</ele>
        <time>2023-08-26T12:54:44.000Z</time>
      </trkpt>
      <trkpt lat="46.771779" lon="9.936513">
        <ele>2136.28994</ele>
        <time>2023-08-26T12:54:51.000Z</time>
      </trkpt>
      <trkpt lat="46.771743" lon="9.936375">
        <ele>2135.422845</ele>
        <time>2023-08-26T12:54:52.000Z</time>
      </trkpt>
      <trkpt lat="46.771796" lon="9.936264">
        <ele>2134.500608</ele>
        <time>2023-08-26T12:54:53.000Z</time>
      </trkpt>
      <trkpt lat="46.772043" lon="9.936171">
        <ele>2132.312544</ele>
        <time>2023-08-26T12:54:56.000Z</time>
      </trkpt>
      <trkpt lat="46.772606" lon="9.936134">
        <ele>2127.085764</ele>
        <time>2023-08-26T12:55:02.000Z</time>
      </trkpt>
      <trkpt lat="46.772759" lon="9.936043">
        <ele>2125.46249</ele>
        <time>2023-08-26T12:55:04.000Z</time>
      </trkpt>
      <trkpt lat="46.773703" lon="9.93501">
        <ele>2114.121918</ele>
        <time>2023-08-26T12:55:17.000Z</time>
      </trkpt>
      <trkpt lat="46.774487" lon="9.934544">
        <ele>2106.037649</ele>
        <time>2023-08-26T12:55:26.000Z</time>
      </trkpt>
      <trkpt lat="46.775318" lon="9.934334">
        <ele>2098.080464</ele>
        <time>2023-08-26T12:55:35.000Z</time>
      </trkpt>
      <trkpt lat="46.775844" lon="9.934352">
        <ele>2092.943573</ele>
        <time>2023-08-26T12:55:41.000Z</time>
      </trkpt>
      <trkpt lat="46.776145" lon="9.934281">
        <ele>2089.808846</ele>
        <time>2023-08-26T12:55:44.000Z</time>
      </trkpt>
      <trkpt lat="46.777852" lon="9.932822">
        <ele>2072.019739</ele>
        <time>2023-08-26T12:56:06.000Z</time>
      </trkpt>
      <trkpt lat="46.777862" lon="9.932803">
        <ele>2071.868689</ele>
        <time>2023-08-26T12:56:06.000Z</time>
      </trkpt>
      <trkpt lat="46.777974" lon="9.932618">
        <ele>2070.576351</ele>
        <time>2023-08-26T12:56:08.000Z</time>
      </trkpt>
      <trkpt lat="46.77811" lon="9.932359">
        <ele>2068.717779</ele>
        <time>2023-08-26T12:56:10.000Z</time>
      </trkpt>
      <trkpt lat="46.778295" lon="9.931991">
        <ele>2066.223494</ele>
        <time>2023-08-26T12:56:13.000Z</time>
      </trkpt>
      <trkpt lat="46.778791" lon="9.931257">
        <ele>2062.050113</ele>
        <time>2023-08-26T12:56:21.000Z</time>
      </trkpt>
      <trkpt lat="46.779016" lon="9.93081">
        <ele>2059.995017</ele>
        <time>2023-08-26T12:56:25.000Z</time>
      </trkpt>
      <trkpt lat="46.7791" lon="9.930386">
        <ele>2058.389505</ele>
        <time>2023-08-26T12:56:28.000Z</time>
      </trkpt>
      <trkpt lat="46.779173" lon="9.929672">
        <ele>2055.65817</ele>
        <time>2023-08-26T12:56:34.000Z</time>
      </trkpt>
      <trkpt lat="46.779227" lon="9.929463">
        <ele>2054.399061</ele>
        <time>2023-08-26T12:56:36.000Z</time>
      </trkpt>
      <trkpt lat="46.779411" lon="9.929035">
        <ele>2051.361071</ele>
        <time>2023-08-26T12:56:40.000Z</time>
      </trkpt>
      <trkpt lat="46.780101" lon="9.927546">
        <ele>2040.354914</ele>
        <time>2023-08-26T12:56:54.000Z</time>
      </trkpt>
      <trkpt lat="46.780276" lon="9.927044">
        <ele>2036.984253</ele>
        <time>2023-08-26T12:56:58.000Z</time>
      </trkpt>
      <trkpt lat="46.78079" lon="9.924929">
        <ele>2023.280332</ele>
        <time>2023-08-26T12:57:15.000Z</time>
      </trkpt>
      <trkpt lat="46.781634" lon="9.923028">
        <ele>2005.681276</ele>
        <time>2023-08-26T12:57:32.000Z</time>
      </trkpt>
      <trkpt lat="46.782447" lon="9.92193">
        <ele>1990.871912</ele>
        <time>2023-08-26T12:57:44.000Z</time>
      </trkpt>
      <trkpt lat="46.782647" lon="9.921739">
        <ele>1987.465886</ele>
        <time>2023-08-26T12:57:47.000Z</time>
      </trkpt>
      <trkpt lat="46.783126" lon="9.921501">
        <ele>1980.444352</ele>
        <time>2023-08-26T12:57:53.000Z</time>
      </trkpt>
      <trkpt lat="46.783317" lon="9.921463">
        <ele>1977.671788</ele>
        <time>2023-08-26T12:57:55.000Z</time>
      </trkpt>
      <trkpt lat="46.783673" lon="9.921533">
        <ele>1973.907672</ele>
        <time>2023-08-26T12:57:59.000Z</time>
      </trkpt>
      <trkpt lat="46.78374" lon="9.921571">
        <ele>1973.201104</ele>
        <time>2023-08-26T12:58:00.000Z</time>
      </trkpt>
      <trkpt lat="46.783971" lon="9.921662">
        <ele>1970.727123</ele>
        <time>2023-08-26T12:58:03.000Z</time>
      </trkpt>
      <trkpt lat="46.784261" lon="9.921672">
        <ele>1967.714539</ele>
        <time>2023-08-26T12:58:06.000Z</time>
      </trkpt>
      <trkpt lat="46.784431" lon="9.9216">
        <ele>1965.913524</ele>
        <time>2023-08-26T12:58:08.000Z</time>
      </trkpt>
      <trkpt lat="46.784705" lon="9.921312">
        <ele>1962.387443</ele>
        <time>2023-08-26T12:58:12.000Z</time>
      </trkpt>
      <trkpt lat="46.785295" lon="9.920363">
        <ele>1956.028025</ele>
        <time>2023-08-26T12:58:22.000Z</time>
      </trkpt>
      <trkpt lat="46.78549" lon="9.920237">
        <ele>1954.750377</ele>
        <time>2023-08-26T12:58:24.000Z</time>
      </trkpt>
      <trkpt lat="46.78576" lon="9.920288">
        <ele>1953.199121</ele>
        <time>2023-08-26T12:58:27.000Z</time>
      </trkpt>
      <trkpt lat="46.785957" lon="9.920252">
        <ele>1952.084565</ele>
        <time>2023-08-26T12:58:29.000Z</time>
      </trkpt>
      <trkpt lat="46.786704" lon="9.919041">
        <ele>1946.580892</ele>
        <time>2023-08-26T12:58:41.000Z</time>
      </trkpt>
      <trkpt lat="46.786816" lon="9.91902">
        <ele>1946.036997</ele>
        <time>2023-08-26T12:58:42.000Z</time>
      </trkpt>
      <trkpt lat="46.786948" lon="9.91912">
        <ele>1945.462093</ele>
        <time>2023-08-26T12:58:44.000Z</time>
      </trkpt>
      <trkpt lat="46.786962" lon="9.919181">
        <ele>1945.26417</ele>
        <time>2023-08-26T12:58:44.000Z</time>
      </trkpt>
      <trkpt lat="46.787005" lon="9.919285">
        <ele>1944.953639</ele>
        <time>2023-08-26T12:58:45.000Z</time>
      </trkpt>
      <trkpt lat="46.787035" lon="9.919661">
        <ele>1943.812355</ele>
        <time>2023-08-26T12:58:48.000Z</time>
      </trkpt>
      <trkpt lat="46.78703" lon="9.91979">
        <ele>1943.426195</ele>
        <time>2023-08-26T12:58:49.000Z</time>
      </trkpt>
      <trkpt lat="46.786952" lon="9.920042">
        <ele>1942.666046</ele>
        <time>2023-08-26T12:58:51.000Z</time>
      </trkpt>
      <trkpt lat="46.786957" lon="9.920162">
        <ele>1942.33845</ele>
        <time>2023-08-26T12:58:52.000Z</time>
      </trkpt>
      <trkpt lat="46.787009" lon="9.920326">
        <ele>1941.800612</ele>
        <time>2023-08-26T12:58:53.000Z</time>
      </trkpt>
      <trkpt lat="46.787077" lon="9.920375">
        <ele>1941.461016</ele>
        <time>2023-08-26T12:58:54.000Z</time>
      </trkpt>
      <trkpt lat="46.787148" lon="9.920363">
        <ele>1941.034137</ele>
        <time>2023-08-26T12:58:55.000Z</time>
      </trkpt>
      <trkpt lat="46.787297" lon="9.920178">
        <ele>1939.71459</ele>
        <time>2023-08-26T12:58:57.000Z</time>
      </trkpt>
      <trkpt lat="46.788833" lon="9.917518">
        <ele>1923.178356</ele>
        <time>2023-08-26T12:59:24.000Z</time>
      </trkpt>
      <trkpt lat="46.789257" lon="9.917063">
        <ele>1919.467441</ele>
        <time>2023-08-26T12:59:30.000Z</time>
      </trkpt>
      <trkpt lat="46.79044" lon="9.916116">
        <ele>1910.539918</ele>
        <time>2023-08-26T12:59:45.000Z</time>
      </trkpt>
      <trkpt lat="46.790635" lon="9.915863">
        <ele>1908.887815</ele>
        <time>2023-08-26T12:59:48.000Z</time>
      </trkpt>
      <trkpt lat="46.790705" lon="9.915687">
        <ele>1907.973815</ele>
        <time>2023-08-26T12:59:50.000Z</time>
      </trkpt>
      <trkpt lat="46.790759" lon="9.915567">
        <ele>1907.350002</ele>
        <time>2023-08-26T12:59:51.000Z</time>
      </trkpt>
      <trkpt lat="46.790794" lon="9.915504">
        <ele>1907.030931</ele>
        <time>2023-08-26T12:59:52.000Z</time>
      </trkpt>
      <trkpt lat="46.790869" lon="9.915366">
        <ele>1906.162387</ele>
        <time>2023-08-26T12:59:53.000Z</time>
      </trkpt>
      <trkpt lat="46.791298" lon="9.91498">
        <ele>1902.841244</ele>
        <time>2023-08-26T12:59:59.000Z</time>
      </trkpt>
      <trkpt lat="46.791562" lon="9.914679">
        <ele>1900.555667</ele>
        <time>2023-08-26T13:00:03.000Z</time>
      </trkpt>
      <trkpt lat="46.792452" lon="9.913077">
        <ele>1890.934296</ele>
        <time>2023-08-26T13:00:19.000Z</time>
      </trkpt>
      <trkpt lat="46.793322" lon="9.910698">
        <ele>1878.735267</ele>
        <time>2023-08-26T13:00:40.000Z</time>
      </trkpt>
      <trkpt lat="46.793841" lon="9.9098">
        <ele>1873.847561</ele>
        <time>2023-08-26T13:00:49.000Z</time>
      </trkpt>
      <trkpt lat="46.794055" lon="9.908951">
        <ele>1870.071211</ele>
        <time>2023-08-26T13:00:56.000Z</time>
      </trkpt>
      <trkpt lat="46.794193" lon="9.908587">
        <ele>1868.346108</ele>
        <time>2023-08-26T13:00:59.000Z</time>
      </trkpt>
      <trkpt lat="46.794262" lon="9.908474">
        <ele>1867.667661</ele>
        <time>2023-08-26T13:01:00.000Z</time>
      </trkpt>
      <trkpt lat="46.794588" lon="9.907935">
        <ele>1864.689066</ele>
        <time>2023-08-26T13:01:05.000Z</time>
      </trkpt>
      <trkpt lat="46.795239" lon="9.906819">
        <ele>1858.511061</ele>
        <time>2023-08-26T13:01:16.000Z</time>
      </trkpt>
      <trkpt lat="46.795681" lon="9.906152">
        <ele>1855.184062</ele>
        <time>2023-08-26T13:01:23.000Z</time>
      </trkpt>
      <trkpt lat="46.796051" lon="9.905376">
        <ele>1851.911779</ele>
        <time>2023-08-26T13:01:30.000Z</time>
      </trkpt>
      <trkpt lat="46.796163" lon="9.905167">
        <ele>1850.981901</ele>
        <time>2023-08-26T13:01:32.000Z</time>
      </trkpt>
      <trkpt lat="46.796282" lon="9.905001">
        <ele>1850.110331</ele>
        <time>2023-08-26T13:01:34.000Z</time>
      </trkpt>
      <trkpt lat="46.796454" lon="9.904868">
        <ele>1849.173296</ele>
        <time>2023-08-26T13:01:36.000Z</time>
      </trkpt>
      <trkpt lat="46.796966" lon="9.904445">
        <ele>1846.61348</ele>
        <time>2023-08-26T13:01:43.000Z</time>
      </trkpt>
      <trkpt lat="46.797329" lon="9.903982">
        <ele>1844.511707</ele>
        <time>2023-08-26T13:01:48.000Z</time>
      </trkpt>
      <trkpt lat="46.798262" lon="9.902989">
        <ele>1838.500038</ele>
        <time>2023-08-26T13:02:01.000Z</time>
      </trkpt>
      <trkpt lat="46.798319" lon="9.902931">
        <ele>1838.056935</ele>
        <time>2023-08-26T13:02:02.000Z</time>
      </trkpt>
      <trkpt lat="46.79846" lon="9.902739">
        <ele>1836.881882</ele>
        <time>2023-08-26T13:02:04.000Z</time>
      </trkpt>
      <trkpt lat="46.79886" lon="9.902096">
        <ele>1833.068854</ele>
        <time>2023-08-26T13:02:11.000Z</time>
      </trkpt>
      <trkpt lat="46.79939" lon="9.901225">
        <ele>1827.649918</ele>
        <time>2023-08-26T13:02:20.000Z</time>
      </trkpt>
      <trkpt lat="46.799683" lon="9.90082">
        <ele>1824.756519</ele>
        <time>2023-08-26T13:02:24.000Z</time>
      </trkpt>
      <trkpt lat="46.799905" lon="9.900611">
        <ele>1822.866615</ele>
        <time>2023-08-26T13:02:27.000Z</time>
      </trkpt>
      <trkpt lat="46.800315" lon="9.900213">
        <ele>1819.292101</ele>
        <time>2023-08-26T13:02:32.000Z</time>
      </trkpt>
      <trkpt lat="46.800426" lon="9.900066">
        <ele>1818.216812</ele>
        <time>2023-08-26T13:02:34.000Z</time>
      </trkpt>
      <trkpt lat="46.800616" lon="9.899662">
        <ele>1815.875449</ele>
        <time>2023-08-26T13:02:38.000Z</time>
      </trkpt>
      <trkpt lat="46.800822" lon="9.898314">
        <ele>1809.178528</ele>
        <time>2023-08-26T13:02:49.000Z</time>
      </trkpt>
      <trkpt lat="46.800872" lon="9.898214">
        <ele>1808.567229</ele>
        <time>2023-08-26T13:02:50.000Z</time>
      </trkpt>
      <trkpt lat="46.800927" lon="9.898062">
        <ele>1807.727785</ele>
        <time>2023-08-26T13:02:51.000Z</time>
      </trkpt>
      <trkpt lat="46.800951" lon="9.898008">
        <ele>1807.443591</ele>
        <time>2023-08-26T13:02:51.000Z</time>
      </trkpt>
      <trkpt lat="46.801072" lon="9.897802">
        <ele>1806.145658</ele>
        <time>2023-08-26T13:02:53.000Z</time>
      </trkpt>
      <trkpt lat="46.801767" lon="9.896748">
        <ele>1798.988689</ele>
        <time>2023-08-26T13:03:04.000Z</time>
      </trkpt>
      <trkpt lat="46.801954" lon="9.896483">
        <ele>1797.203497</ele>
        <time>2023-08-26T13:03:07.000Z</time>
      </trkpt>
      <trkpt lat="46.802108" lon="9.896028">
        <ele>1794.770567</ele>
        <time>2023-08-26T13:03:11.000Z</time>
      </trkpt>
      <trkpt lat="46.802139" lon="9.895942">
        <ele>1794.322572</ele>
        <time>2023-08-26T13:03:12.000Z</time>
      </trkpt>
      <trkpt lat="46.802148" lon="9.895871">
        <ele>1793.984385</ele>
        <time>2023-08-26T13:03:13.000Z</time>
      </trkpt>
      <trkpt lat="46.802168" lon="9.895686">
        <ele>1793.030346</ele>
        <time>2023-08-26T13:03:14.000Z</time>
      </trkpt>
      <trkpt lat="46.802213" lon="9.895297">
        <ele>1791.218067</ele>
        <time>2023-08-26T13:03:17.000Z</time>
      </trkpt>
      <trkpt lat="46.802217" lon="9.895258">
        <ele>1791.028205</ele>
        <time>2023-08-26T13:03:17.000Z</time>
      </trkpt>
      <trkpt lat="46.802366" lon="9.894733">
        <ele>1788.804831</ele>
        <time>2023-08-26T13:03:21.000Z</time>
      </trkpt>
      <trkpt lat="46.802813" lon="9.893715">
        <ele>1784.088633</ele>
        <time>2023-08-26T13:03:30.000Z</time>
      </trkpt>
      <trkpt lat="46.803091" lon="9.893488">
        <ele>1782.312103</ele>
        <time>2023-08-26T13:03:34.000Z</time>
      </trkpt>
      <trkpt lat="46.803469" lon="9.893302">
        <ele>1779.720573</ele>
        <time>2023-08-26T13:03:38.000Z</time>
      </trkpt>
      <trkpt lat="46.803663" lon="9.893164">
        <ele>1778.22105</ele>
        <time>2023-08-26T13:03:40.000Z</time>
      </trkpt>
      <trkpt lat="46.803786" lon="9.893016">
        <ele>1777.069941</ele>
        <time>2023-08-26T13:03:42.000Z</time>
      </trkpt>
      <trkpt lat="46.803835" lon="9.892953">
        <ele>1776.627969</ele>
        <time>2023-08-26T13:03:43.000Z</time>
      </trkpt>
      <trkpt lat="46.804593" lon="9.89193">
        <ele>1769.260322</ele>
        <time>2023-08-26T13:03:54.000Z</time>
      </trkpt>
      <trkpt lat="46.805472" lon="9.890947">
        <ele>1758.584489</ele>
        <time>2023-08-26T13:04:06.000Z</time>
      </trkpt>
      <trkpt lat="46.805644" lon="9.890675">
        <ele>1756.043271</ele>
        <time>2023-08-26T13:04:09.000Z</time>
      </trkpt>
      <trkpt lat="46.805715" lon="9.89053">
        <ele>1754.819994</ele>
        <time>2023-08-26T13:04:10.000Z</time>
      </trkpt>
      <trkpt lat="46.805807" lon="9.890293">
        <ele>1752.969431</ele>
        <time>2023-08-26T13:04:12.000Z</time>
      </trkpt>
      <trkpt lat="46.805864" lon="9.889932">
        <ele>1750.470475</ele>
        <time>2023-08-26T13:04:15.000Z</time>
      </trkpt>
      <trkpt lat="46.805993" lon="9.889136">
        <ele>1745.373644</ele>
        <time>2023-08-26T13:04:21.000Z</time>
      </trkpt>
      <trkpt lat="46.806315" lon="9.888383">
        <ele>1739.90501</ele>
        <time>2023-08-26T13:04:28.000Z</time>
      </trkpt>
      <trkpt lat="46.806506" lon="9.887128">
        <ele>1732.172191</ele>
        <time>2023-08-26T13:04:38.000Z</time>
      </trkpt>
      <trkpt lat="46.806718" lon="9.886067">
        <ele>1726.161285</ele>
        <time>2023-08-26T13:04:46.000Z</time>
      </trkpt>
      <trkpt lat="46.806764" lon="9.885757">
        <ele>1724.490952</ele>
        <time>2023-08-26T13:04:48.000Z</time>
      </trkpt>
      <trkpt lat="46.806669" lon="9.884759">
        <ele>1718.741826</ele>
        <time>2023-08-26T13:04:56.000Z</time>
      </trkpt>
      <trkpt lat="46.80687" lon="9.88377">
        <ele>1712.110088</ele>
        <time>2023-08-26T13:05:04.000Z</time>
      </trkpt>
      <trkpt lat="46.806906" lon="9.883263">
        <ele>1708.704519</ele>
        <time>2023-08-26T13:05:08.000Z</time>
      </trkpt>
      <trkpt lat="46.80702" lon="9.88283">
        <ele>1705.704219</ele>
        <time>2023-08-26T13:05:12.000Z</time>
      </trkpt>
      <trkpt lat="46.807069" lon="9.881626">
        <ele>1698.717103</ele>
        <time>2023-08-26T13:05:21.000Z</time>
      </trkpt>
      <trkpt lat="46.807184" lon="9.88098">
        <ele>1695.223375</ele>
        <time>2023-08-26T13:05:26.000Z</time>
      </trkpt>
      <trkpt lat="46.80722" lon="9.880795">
        <ele>1694.21543</ele>
        <time>2023-08-26T13:05:27.000Z</time>
      </trkpt>
      <trkpt lat="46.807328" lon="9.88049">
        <ele>1692.384417</ele>
        <time>2023-08-26T13:05:30.000Z</time>
      </trkpt>
      <trkpt lat="46.807533" lon="9.878661">
        <ele>1684.709019</ele>
        <time>2023-08-26T13:05:44.000Z</time>
      </trkpt>
      <trkpt lat="46.807449" lon="9.877198">
        <ele>1679.452308</ele>
        <time>2023-08-26T13:05:55.000Z</time>
      </trkpt>
      <trkpt lat="46.807512" lon="9.8766">
        <ele>1677.009406</ele>
        <time>2023-08-26T13:06:00.000Z</time>
      </trkpt>
      <trkpt lat="46.807881" lon="9.874982">
        <ele>1669.908133</ele>
        <time>2023-08-26T13:06:13.000Z</time>
      </trkpt>
      <trkpt lat="46.807849" lon="9.874105">
        <ele>1666.28796</ele>
        <time>2023-08-26T13:06:20.000Z</time>
      </trkpt>
      <trkpt lat="46.807865" lon="9.873913">
        <ele>1665.44354</ele>
        <time>2023-08-26T13:06:21.000Z</time>
      </trkpt>
      <trkpt lat="46.807881" lon="9.873849">
        <ele>1665.177429</ele>
        <time>2023-08-26T13:06:22.000Z</time>
      </trkpt>
      <trkpt lat="46.807895" lon="9.87367">
        <ele>1664.431212</ele>
        <time>2023-08-26T13:06:23.000Z</time>
      </trkpt>
      <trkpt lat="46.807922" lon="9.873468">
        <ele>1663.565774</ele>
        <time>2023-08-26T13:06:25.000Z</time>
      </trkpt>
      <trkpt lat="46.807988" lon="9.872643">
        <ele>1660.069603</ele>
        <time>2023-08-26T13:06:31.000Z</time>
      </trkpt>
      <trkpt lat="46.807903" lon="9.872099">
        <ele>1657.685699</ele>
        <time>2023-08-26T13:06:35.000Z</time>
      </trkpt>
      <trkpt lat="46.807902" lon="9.871738">
        <ele>1656.402201</ele>
        <time>2023-08-26T13:06:38.000Z</time>
      </trkpt>
      <trkpt lat="46.808371" lon="9.868691">
        <ele>1645.476561</ele>
        <time>2023-08-26T13:07:02.000Z</time>
      </trkpt>
      <trkpt lat="46.808257" lon="9.866638">
        <ele>1638.896949</ele>
        <time>2023-08-26T13:07:18.000Z</time>
      </trkpt>
      <trkpt lat="46.808387" lon="9.865484">
        <ele>1635.730293</ele>
        <time>2023-08-26T13:07:27.000Z</time>
      </trkpt>
      <trkpt lat="46.80859" lon="9.864659">
        <ele>1633.348789</ele>
        <time>2023-08-26T13:07:34.000Z</time>
      </trkpt>
      <trkpt lat="46.808664" lon="9.864487">
        <ele>1632.821668</ele>
        <time>2023-08-26T13:07:36.000Z</time>
      </trkpt>
      <trkpt lat="46.808999" lon="9.863673">
        <ele>1629.52154</ele>
        <time>2023-08-26T13:07:43.000Z</time>
      </trkpt>
      <trkpt lat="46.809159" lon="9.863322">
        <ele>1628.036522</ele>
        <time>2023-08-26T13:07:46.000Z</time>
      </trkpt>
      <trkpt lat="46.809456" lon="9.86282">
        <ele>1625.6679</ele>
        <time>2023-08-26T13:07:51.000Z</time>
      </trkpt>
      <trkpt lat="46.809547" lon="9.862602">
        <ele>1624.768164</ele>
        <time>2023-08-26T13:07:53.000Z</time>
      </trkpt>
      <trkpt lat="46.809948" lon="9.861248">
        <ele>1617.728271</ele>
        <time>2023-08-26T13:08:04.000Z</time>
      </trkpt>
      <trkpt lat="46.809991" lon="9.860077">
        <ele>1611.520063</ele>
        <time>2023-08-26T13:08:13.000Z</time>
      </trkpt>
      <trkpt lat="46.81006" lon="9.859594">
        <ele>1608.903158</ele>
        <time>2023-08-26T13:08:17.000Z</time>
      </trkpt>
      <trkpt lat="46.810597" lon="9.858396">
        <ele>1601.187575</ele>
        <time>2023-08-26T13:08:28.000Z</time>
      </trkpt>
      <trkpt lat="46.810946" lon="9.856791">
        <ele>1592.601706</ele>
        <time>2023-08-26T13:08:41.000Z</time>
      </trkpt>
      <trkpt lat="46.811016" lon="9.856307">
        <ele>1590.324481</ele>
        <time>2023-08-26T13:08:45.000Z</time>
      </trkpt>
      <trkpt lat="46.811013" lon="9.854572">
        <ele>1582.709092</ele>
        <time>2023-08-26T13:08:58.000Z</time>
      </trkpt>
      <trkpt lat="46.811033" lon="9.853527">
        <ele>1579.833619</ele>
        <time>2023-08-26T13:09:06.000Z</time>
      </trkpt>
      <trkpt lat="46.811036" lon="9.853465">
        <ele>1579.67597</ele>
        <time>2023-08-26T13:09:06.000Z</time>
      </trkpt>
      <trkpt lat="46.811029" lon="9.853333">
        <ele>1579.280575</ele>
        <time>2023-08-26T13:09:07.000Z</time>
      </trkpt>
      <trkpt lat="46.811058" lon="9.852269">
        <ele>1576.36212</ele>
        <time>2023-08-26T13:09:15.000Z</time>
      </trkpt>
      <trkpt lat="46.811105" lon="9.851853">
        <ele>1575.885701</ele>
        <time>2023-08-26T13:09:18.000Z</time>
      </trkpt>
      <trkpt lat="46.811011" lon="9.851823">
        <ele>1575.874177</ele>
        <time>2023-08-26T13:09:19.000Z</time>
      </trkpt>
      <trkpt lat="46.810936" lon="9.851758">
        <ele>1575.863686</ele>
        <time>2023-08-26T13:09:20.000Z</time>
      </trkpt>
      <trkpt lat="46.810815" lon="9.851604">
        <ele>1575.844118</ele>
        <time>2023-08-26T13:09:22.000Z</time>
      </trkpt>
      <trkpt lat="46.810528" lon="9.850993">
        <ele>1575.782492</ele>
        <time>2023-08-26T13:09:28.000Z</time>
      </trkpt>
      <trkpt lat="46.810333" lon="9.850738">
        <ele>1575.751399</ele>
        <time>2023-08-26T13:09:31.000Z</time>
      </trkpt>
      <trkpt lat="46.809839" lon="9.848562">
        <ele>1575.11314</ele>
        <time>2023-08-26T13:09:48.000Z</time>
      </trkpt>
      <trkpt lat="46.809658" lon="9.848017">
        <ele>1574.888698</ele>
        <time>2023-08-26T13:09:53.000Z</time>
      </trkpt>
      <trkpt lat="46.809418" lon="9.847339">
        <ele>1573.635261</ele>
        <time>2023-08-26T13:09:59.000Z</time>
      </trkpt>
      <trkpt lat="46.809141" lon="9.846766">
        <ele>1571.032097</ele>
        <time>2023-08-26T13:10:04.000Z</time>
      </trkpt>
      <trkpt lat="46.809056" lon="9.846572">
        <ele>1570.165389</ele>
        <time>2023-08-26T13:10:06.000Z</time>
      </trkpt>
      <trkpt lat="46.809193" lon="9.846329">
        <ele>1568.998963</ele>
        <time>2023-08-26T13:10:08.000Z</time>
      </trkpt>
      <trkpt lat="46.809305" lon="9.845954">
        <ele>1567.441335</ele>
        <time>2023-08-26T13:10:11.000Z</time>
      </trkpt>
      <trkpt lat="46.809484" lon="9.845204">
        <ele>1564.63859</ele>
        <time>2023-08-26T13:10:17.000Z</time>
      </trkpt>
      <trkpt lat="46.809373" lon="9.845156">
        <ele>1564.210397</ele>
        <time>2023-08-26T13:10:18.000Z</time>
      </trkpt>
      <trkpt lat="46.809155" lon="9.845071">
        <ele>1563.361388</ele>
        <time>2023-08-26T13:10:21.000Z</time>
      </trkpt>
      <trkpt lat="46.809041" lon="9.844939">
        <ele>1562.798923</ele>
        <time>2023-08-26T13:10:23.000Z</time>
      </trkpt>
      <trkpt lat="46.808928" lon="9.844594">
        <ele>1561.789247</ele>
        <time>2023-08-26T13:10:26.000Z</time>
      </trkpt>
      <trkpt lat="46.808875" lon="9.844495">
        <ele>1561.472626</ele>
        <time>2023-08-26T13:10:27.000Z</time>
      </trkpt>
      <trkpt lat="46.808818" lon="9.84441">
        <ele>1561.146877</ele>
        <time>2023-08-26T13:10:28.000Z</time>
      </trkpt>
      <trkpt lat="46.808068" lon="9.843796">
        <ele>1557.927886</ele>
        <time>2023-08-26T13:10:38.000Z</time>
      </trkpt>
      <trkpt lat="46.807961" lon="9.8436">
        <ele>1557.681413</ele>
        <time>2023-08-26T13:10:40.000Z</time>
      </trkpt>
      <trkpt lat="46.807894" lon="9.843528">
        <ele>1557.572132</ele>
        <time>2023-08-26T13:10:41.000Z</time>
      </trkpt>
      <trkpt lat="46.807466" lon="9.843053">
        <ele>1556.811731</ele>
        <time>2023-08-26T13:10:47.000Z</time>
      </trkpt>
      <trkpt lat="46.807382" lon="9.843283">
        <ele>1556.541934</ele>
        <time>2023-08-26T13:10:49.000Z</time>
      </trkpt>
      <trkpt lat="46.807279" lon="9.843217">
        <ele>1556.393366</ele>
        <time>2023-08-26T13:10:50.000Z</time>
      </trkpt>
      <trkpt lat="46.80663" lon="9.842677">
        <ele>1555.29014</ele>
        <time>2023-08-26T13:10:58.000Z</time>
      </trkpt>
      <trkpt lat="46.806582" lon="9.84264">
        <ele>1555.197791</ele>
        <time>2023-08-26T13:10:59.000Z</time>
      </trkpt>
      <trkpt lat="46.806508" lon="9.842631">
        <ele>1555.049633</ele>
        <time>2023-08-26T13:11:00.000Z</time>
      </trkpt>
      <trkpt lat="46.806384" lon="9.842597">
        <ele>1554.80726</ele>
        <time>2023-08-26T13:11:01.000Z</time>
      </trkpt>
      <trkpt lat="46.80592" lon="9.842531">
        <ele>1553.92028</ele>
        <time>2023-08-26T13:11:06.000Z</time>
      </trkpt>
      <trkpt lat="46.805712" lon="9.842503">
        <ele>1553.509399</ele>
        <time>2023-08-26T13:11:08.000Z</time>
      </trkpt>
      <trkpt lat="46.805776" lon="9.841265">
        <ele>1551.927148</ele>
        <time>2023-08-26T13:11:17.000Z</time>
      </trkpt>
      <trkpt lat="46.805745" lon="9.841056">
        <ele>1551.758902</ele>
        <time>2023-08-26T13:11:19.000Z</time>
      </trkpt>
      <trkpt lat="46.805514" lon="9.839985">
        <ele>1550.885139</ele>
        <time>2023-08-26T13:11:28.000Z</time>
      </trkpt>
      <trkpt lat="46.805525" lon="9.839774">
        <ele>1550.714142</ele>
        <time>2023-08-26T13:11:30.000Z</time>
      </trkpt>
      <trkpt lat="46.805553" lon="9.839572">
        <ele>1550.555994</ele>
        <time>2023-08-26T13:11:32.000Z</time>
      </trkpt>
      <trkpt lat="46.805408" lon="9.839732">
        <ele>1550.336944</ele>
        <time>2023-08-26T13:11:34.000Z</time>
      </trkpt>
      <trkpt lat="46.803991" lon="9.840371">
        <ele>1549.868884</ele>
        <time>2023-08-26T13:11:50.000Z</time>
      </trkpt>
      <trkpt lat="46.803915" lon="9.840416">
        <ele>1549.86306</ele>
        <time>2023-08-26T13:11:51.000Z</time>
      </trkpt>
      <trkpt lat="46.803798" lon="9.840501">
        <ele>1549.852015</ele>
        <time>2023-08-26T13:11:52.000Z</time>
      </trkpt>
      <trkpt lat="46.803509" lon="9.840698">
        <ele>1549.828483</ele>
        <time>2023-08-26T13:11:56.000Z</time>
      </trkpt>
      <trkpt lat="46.802819" lon="9.841295">
        <ele>1550.238974</ele>
        <time>2023-08-26T13:12:05.000Z</time>
      </trkpt>
      <trkpt lat="46.802184" lon="9.841841">
        <ele>1550.698008</ele>
        <time>2023-08-26T13:12:13.000Z</time>
      </trkpt>
      <trkpt lat="46.801855" lon="9.842099">
        <ele>1550.927768</ele>
        <time>2023-08-26T13:12:17.000Z</time>
      </trkpt>
      <trkpt lat="46.801225" lon="9.842559">
        <ele>1551.62329</ele>
        <time>2023-08-26T13:12:25.000Z</time>
      </trkpt>
      <trkpt lat="46.801172" lon="9.842611">
        <ele>1551.699593</ele>
        <time>2023-08-26T13:12:26.000Z</time>
      </trkpt>
      <trkpt lat="46.800811" lon="9.84287">
        <ele>1552.100427</ele>
        <time>2023-08-26T13:12:30.000Z</time>
      </trkpt>
      <trkpt lat="46.799809" lon="9.84361">
        <ele>1553.189383</ele>
        <time>2023-08-26T13:12:42.000Z</time>
      </trkpt>
      <trkpt lat="46.799448" lon="9.843871">
        <ele>1553.557071</ele>
        <time>2023-08-26T13:12:46.000Z</time>
      </trkpt>
      <trkpt lat="46.79942" lon="9.843875">
        <ele>1553.569307</ele>
        <time>2023-08-26T13:12:46.000Z</time>
      </trkpt>
      <trkpt lat="46.799341" lon="9.843938">
        <ele>1553.657762</ele>
        <time>2023-08-26T13:12:47.000Z</time>
      </trkpt>
      <trkpt lat="46.798572" lon="9.844484">
        <ele>1554.373611</ele>
        <time>2023-08-26T13:12:57.000Z</time>
      </trkpt>
      <trkpt lat="46.798516" lon="9.844535">
        <ele>1554.360448</ele>
        <time>2023-08-26T13:12:58.000Z</time>
      </trkpt>
      <trkpt lat="46.798508" lon="9.844426">
        <ele>1554.345586</ele>
        <time>2023-08-26T13:12:59.000Z</time>
      </trkpt>
      <trkpt lat="46.798738" lon="9.843218">
        <ele>1554.172533</ele>
        <time>2023-08-26T13:13:09.000Z</time>
      </trkpt>
      <trkpt lat="46.798661" lon="9.840632">
        <ele>1552.90737</ele>
        <time>2023-08-26T13:13:29.000Z</time>
      </trkpt>
      <trkpt lat="46.798583" lon="9.84003">
        <ele>1552.461817</ele>
        <time>2023-08-26T13:13:34.000Z</time>
      </trkpt>
      <trkpt lat="46.79843" lon="9.838895">
        <ele>1551.624323</ele>
        <time>2023-08-26T13:13:43.000Z</time>
      </trkpt>
      <trkpt lat="46.797959" lon="9.836359">
        <ele>1550.095235</ele>
        <time>2023-08-26T13:14:03.000Z</time>
      </trkpt>
      <trkpt lat="46.79787" lon="9.83594">
        <ele>1550.02352</ele>
        <time>2023-08-26T13:14:06.000Z</time>
      </trkpt>
      <trkpt lat="46.797692" lon="9.8351">
        <ele>1549.882816</ele>
        <time>2023-08-26T13:14:13.000Z</time>
      </trkpt>
      <trkpt lat="46.79768" lon="9.835022">
        <ele>1549.868761</ele>
        <time>2023-08-26T13:14:14.000Z</time>
      </trkpt>
      <trkpt lat="46.797466" lon="9.834612">
        <ele>1549.783307</ele>
        <time>2023-08-26T13:14:18.000Z</time>
      </trkpt>
      <trkpt lat="46.796014" lon="9.831333">
        <ele>1548.586602</ele>
        <time>2023-08-26T13:14:48.000Z</time>
      </trkpt>
      <trkpt lat="46.795145" lon="9.829791">
        <ele>1547.319922</ele>
        <time>2023-08-26T13:15:03.000Z</time>
      </trkpt>
      <trkpt lat="46.795036" lon="9.829603">
        <ele>1547.094954</ele>
        <time>2023-08-26T13:15:05.000Z</time>
      </trkpt>
      <trkpt lat="46.794636" lon="9.828966">
        <ele>1546.281261</ele>
        <time>2023-08-26T13:15:12.000Z</time>
      </trkpt>
      <trkpt lat="46.793929" lon="9.82779">
        <ele>1544.245307</ele>
        <time>2023-08-26T13:15:24.000Z</time>
      </trkpt>
      <trkpt lat="46.7938" lon="9.827515">
        <ele>1543.630329</ele>
        <time>2023-08-26T13:15:27.000Z</time>
      </trkpt>
      <trkpt lat="46.793711" lon="9.827126">
        <ele>1542.887951</ele>
        <time>2023-08-26T13:15:30.000Z</time>
      </trkpt>
      <trkpt lat="46.793714" lon="9.826869">
        <ele>1542.41402</ele>
        <time>2023-08-26T13:15:32.000Z</time>
      </trkpt>
      <trkpt lat="46.793817" lon="9.826376">
        <ele>1541.495425</ele>
        <time>2023-08-26T13:15:36.000Z</time>
      </trkpt>
      <trkpt lat="46.793909" lon="9.82602">
        <ele>1540.810929</ele>
        <time>2023-08-26T13:15:39.000Z</time>
      </trkpt>
      <trkpt lat="46.793948" lon="9.825845">
        <ele>1540.509804</ele>
        <time>2023-08-26T13:15:40.000Z</time>
      </trkpt>
      <trkpt lat="46.794045" lon="9.825537">
        <ele>1540.173563</ele>
        <time>2023-08-26T13:15:43.000Z</time>
      </trkpt>
      <trkpt lat="46.794116" lon="9.825404">
        <ele>1540</ele>
        <time>2023-08-26T13:15:44.000Z</time>
      </trkpt>
      <trkpt lat="46.794162" lon="9.825324">
        <ele>1539.889418</ele>
        <time>2023-08-26T13:15:45.000Z</time>
      </trkpt>
      <trkpt lat="46.794229" lon="9.8252">
        <ele>1539.717145</ele>
        <time>2023-08-26T13:15:46.000Z</time>
      </trkpt>
      <trkpt lat="46.794265" lon="9.825172">
        <ele>1539.671015</ele>
        <time>2023-08-26T13:15:46.000Z</time>
      </trkpt>
      <trkpt lat="46.794413" lon="9.824916">
        <ele>1539.335995</ele>
        <time>2023-08-26T13:15:49.000Z</time>
      </trkpt>
      <trkpt lat="46.794448" lon="9.824848">
        <ele>1539.239973</ele>
        <time>2023-08-26T13:15:50.000Z</time>
      </trkpt>
      <trkpt lat="46.794474" lon="9.824785">
        <ele>1539.151606</ele>
        <time>2023-08-26T13:15:51.000Z</time>
      </trkpt>
      <trkpt lat="46.794553" lon="9.824549">
        <ele>1538.892303</ele>
        <time>2023-08-26T13:15:53.000Z</time>
      </trkpt>
      <trkpt lat="46.794625" lon="9.824052">
        <ele>1538.371001</ele>
        <time>2023-08-26T13:15:57.000Z</time>
      </trkpt>
      <trkpt lat="46.794648" lon="9.824021">
        <ele>1538.328518</ele>
        <time>2023-08-26T13:15:57.000Z</time>
      </trkpt>
      <trkpt lat="46.794674" lon="9.823832">
        <ele>1538.138212</ele>
        <time>2023-08-26T13:15:58.000Z</time>
      </trkpt>
      <trkpt lat="46.794763" lon="9.823955">
        <ele>1537.950547</ele>
        <time>2023-08-26T13:15:59.000Z</time>
      </trkpt>
      <trkpt lat="46.795044" lon="9.824232">
        <ele>1537.76971274</ele>
        <time>2023-08-26T13:16:03.000Z</time>
      </trkpt>
      <trkpt lat="46.795533" lon="9.824701">
        <ele>1537.45766194</ele>
        <time>2023-08-26T13:16:10.000Z</time>
      </trkpt>
      <trkpt lat="46.795644" lon="9.824807">
        <ele>1537.38692053</ele>
        <time>2023-08-26T13:16:11.000Z</time>
      </trkpt>
      <trkpt lat="46.795776" lon="9.82497">
        <ele>1537.29471855</ele>
        <time>2023-08-26T13:16:13.000Z</time>
      </trkpt>
      <trkpt lat="46.795875" lon="9.825076">
        <ele>1537.22924125</ele>
        <time>2023-08-26T13:16:14.000Z</time>
      </trkpt>
      <trkpt lat="46.795923" lon="9.825136">
        <ele>1537.19554123</ele>
        <time>2023-08-26T13:16:15.000Z</time>
      </trkpt>
      <trkpt lat="46.796083" lon="9.825396">
        <ele>1537.06787176</ele>
        <time>2023-08-26T13:16:18.000Z</time>
      </trkpt>
      <trkpt lat="46.796255" lon="9.825662">
        <ele>1536.93425307</ele>
        <time>2023-08-26T13:16:21.000Z</time>
      </trkpt>
    </trkseg>
  </trk>
</gpx>

<!--
Performance optimized by W3 Total Cache. Learn more: https://www.boldgrid.com/w3-total-cache/?utm_source=w3tc&utm_medium=footer_comment&utm_campaign=free_plugin

Page Caching using Disk: Enhanced{w3tc_pagecache_reject_reason} 

Served from: www.aquabike.world @ 2026-05-07 12:45:52 by W3 Total Cache
-->